<?xml version="1.0" encoding="UTF-8" standalone="no" ?>
<gpx xmlns="http://www.topografix.com/GPX/1/1" xmlns:xsi="http://www.w3.org/2001/XMLSchema-instance" xsi:schemaLocation="http://www.topografix.com/GPX/1/1 http://www.topografix.com/GPX/1/1/gpx.xsd" version="1.1" creator="VisuGPX - https://www.visugpx.com">
  <metadata>
    <name>Randuro à Mardaric</name>
    <desc><![CDATA[Lunch ride à la Vanade]]></desc>
  </metadata>
  <trk>
    <name><![CDATA[Lunch ride à Mardaric]]></name>
    <trkseg>
      <trkpt lat="43.66181" lon="7.09536">
        <ele>48</ele>
        <time>2014-09-03T10:13:19.000Z</time>
      </trkpt>
      <trkpt lat="43.66165" lon="7.09546">
        <ele>45.799999237061</ele>
        <time>2014-09-03T10:13:24.000Z</time>
      </trkpt>
      <trkpt lat="43.66146" lon="7.09559">
        <ele>44.799999237061</ele>
        <time>2014-09-03T10:13:28.000Z</time>
      </trkpt>
      <trkpt lat="43.66141" lon="7.09563">
        <ele>44.599998474121</ele>
        <time>2014-09-03T10:13:29.000Z</time>
      </trkpt>
      <trkpt lat="43.66119" lon="7.09572">
        <ele>44.200000762939</ele>
        <time>2014-09-03T10:13:33.000Z</time>
      </trkpt>
      <trkpt lat="43.66105" lon="7.09582">
        <ele>43.799999237061</ele>
        <time>2014-09-03T10:13:36.000Z</time>
      </trkpt>
      <trkpt lat="43.66101" lon="7.09577">
        <ele>43.799999237061</ele>
        <time>2014-09-03T10:13:37.000Z</time>
      </trkpt>
      <trkpt lat="43.6609" lon="7.09553">
        <ele>43</ele>
        <time>2014-09-03T10:13:41.000Z</time>
      </trkpt>
      <trkpt lat="43.6607" lon="7.09536">
        <ele>41</ele>
        <time>2014-09-03T10:13:45.000Z</time>
      </trkpt>
      <trkpt lat="43.66051" lon="7.09537">
        <ele>39.200000762939</ele>
        <time>2014-09-03T10:13:48.000Z</time>
      </trkpt>
      <trkpt lat="43.66044" lon="7.0954">
        <ele>38.599998474121</ele>
        <time>2014-09-03T10:13:49.000Z</time>
      </trkpt>
      <trkpt lat="43.66021" lon="7.09551">
        <ele>36.799999237061</ele>
        <time>2014-09-03T10:13:52.000Z</time>
      </trkpt>
      <trkpt lat="43.65996" lon="7.09564">
        <ele>34.400001525879</ele>
        <time>2014-09-03T10:13:55.000Z</time>
      </trkpt>
      <trkpt lat="43.65987" lon="7.0957">
        <ele>33.200000762939</ele>
        <time>2014-09-03T10:13:56.000Z</time>
      </trkpt>
      <trkpt lat="43.65971" lon="7.09585">
        <ele>31.200000762939</ele>
        <time>2014-09-03T10:13:59.000Z</time>
      </trkpt>
      <trkpt lat="43.6596" lon="7.09601">
        <ele>29.799999237061</ele>
        <time>2014-09-03T10:14:02.000Z</time>
      </trkpt>
      <trkpt lat="43.65947" lon="7.09599">
        <ele>28.799999237061</ele>
        <time>2014-09-03T10:14:07.000Z</time>
      </trkpt>
      <trkpt lat="43.65946" lon="7.09594">
        <ele>28.60000038147</ele>
        <time>2014-09-03T10:14:08.000Z</time>
      </trkpt>
      <trkpt lat="43.65938" lon="7.09561">
        <ele>27.39999961853</ele>
        <time>2014-09-03T10:14:14.000Z</time>
      </trkpt>
      <trkpt lat="43.65936" lon="7.09549">
        <ele>27.39999961853</ele>
        <time>2014-09-03T10:14:16.000Z</time>
      </trkpt>
      <trkpt lat="43.65932" lon="7.09529">
        <ele>27.60000038147</ele>
        <time>2014-09-03T10:14:19.000Z</time>
      </trkpt>
      <trkpt lat="43.65923" lon="7.09495">
        <ele>27.799999237061</ele>
        <time>2014-09-03T10:14:25.000Z</time>
      </trkpt>
      <trkpt lat="43.65917" lon="7.09471">
        <ele>28.200000762939</ele>
        <time>2014-09-03T10:14:29.000Z</time>
      </trkpt>
      <trkpt lat="43.65911" lon="7.09447">
        <ele>29</ele>
        <time>2014-09-03T10:14:33.000Z</time>
      </trkpt>
      <trkpt lat="43.65905" lon="7.09422">
        <ele>30</ele>
        <time>2014-09-03T10:14:37.000Z</time>
      </trkpt>
      <trkpt lat="43.65899" lon="7.09397">
        <ele>30.799999237061</ele>
        <time>2014-09-03T10:14:41.000Z</time>
      </trkpt>
      <trkpt lat="43.65893" lon="7.09373">
        <ele>31.799999237061</ele>
        <time>2014-09-03T10:14:45.000Z</time>
      </trkpt>
      <trkpt lat="43.65892" lon="7.09367">
        <ele>32</ele>
        <time>2014-09-03T10:14:46.000Z</time>
      </trkpt>
      <trkpt lat="43.65884" lon="7.09332">
        <ele>33.599998474121</ele>
        <time>2014-09-03T10:14:52.000Z</time>
      </trkpt>
      <trkpt lat="43.65882" lon="7.09327">
        <ele>33.799999237061</ele>
        <time>2014-09-03T10:14:53.000Z</time>
      </trkpt>
      <trkpt lat="43.65871" lon="7.09305">
        <ele>34.200000762939</ele>
        <time>2014-09-03T10:14:57.000Z</time>
      </trkpt>
      <trkpt lat="43.65866" lon="7.09303">
        <ele>34</ele>
        <time>2014-09-03T10:14:58.000Z</time>
      </trkpt>
      <trkpt lat="43.6585" lon="7.09305">
        <ele>33</ele>
        <time>2014-09-03T10:15:01.000Z</time>
      </trkpt>
      <trkpt lat="43.65844" lon="7.09307">
        <ele>32.400001525879</ele>
        <time>2014-09-03T10:15:02.000Z</time>
      </trkpt>
      <trkpt lat="43.65817" lon="7.09342">
        <ele>30</ele>
        <time>2014-09-03T10:15:08.000Z</time>
      </trkpt>
      <trkpt lat="43.65795" lon="7.09353">
        <ele>28.60000038147</ele>
        <time>2014-09-03T10:15:12.000Z</time>
      </trkpt>
      <trkpt lat="43.65773" lon="7.09364">
        <ele>29</ele>
        <time>2014-09-03T10:15:16.000Z</time>
      </trkpt>
      <trkpt lat="43.65756" lon="7.0937">
        <ele>29.39999961853</ele>
        <time>2014-09-03T10:15:19.000Z</time>
      </trkpt>
      <trkpt lat="43.65733" lon="7.0937">
        <ele>29.799999237061</ele>
        <time>2014-09-03T10:15:23.000Z</time>
      </trkpt>
      <trkpt lat="43.65708" lon="7.09359">
        <ele>30.799999237061</ele>
        <time>2014-09-03T10:15:28.000Z</time>
      </trkpt>
      <trkpt lat="43.65689" lon="7.0935">
        <ele>31.60000038147</ele>
        <time>2014-09-03T10:15:32.000Z</time>
      </trkpt>
      <trkpt lat="43.6567" lon="7.09343">
        <ele>33</ele>
        <time>2014-09-03T10:15:36.000Z</time>
      </trkpt>
      <trkpt lat="43.65661" lon="7.0934">
        <ele>33.599998474121</ele>
        <time>2014-09-03T10:15:38.000Z</time>
      </trkpt>
      <trkpt lat="43.65638" lon="7.09326">
        <ele>35</ele>
        <time>2014-09-03T10:15:43.000Z</time>
      </trkpt>
      <trkpt lat="43.65634" lon="7.09324">
        <ele>35.200000762939</ele>
        <time>2014-09-03T10:15:44.000Z</time>
      </trkpt>
      <trkpt lat="43.65616" lon="7.09313">
        <ele>36</ele>
        <time>2014-09-03T10:15:48.000Z</time>
      </trkpt>
      <trkpt lat="43.65611" lon="7.0931">
        <ele>36.400001525879</ele>
        <time>2014-09-03T10:15:49.000Z</time>
      </trkpt>
      <trkpt lat="43.65602" lon="7.09304">
        <ele>36.799999237061</ele>
        <time>2014-09-03T10:15:51.000Z</time>
      </trkpt>
      <trkpt lat="43.65593" lon="7.09297">
        <ele>37.400001525879</ele>
        <time>2014-09-03T10:15:53.000Z</time>
      </trkpt>
      <trkpt lat="43.65575" lon="7.09274">
        <ele>38.599998474121</ele>
        <time>2014-09-03T10:15:58.000Z</time>
      </trkpt>
      <trkpt lat="43.65561" lon="7.09248">
        <ele>38.799999237061</ele>
        <time>2014-09-03T10:16:03.000Z</time>
      </trkpt>
      <trkpt lat="43.65551" lon="7.09231">
        <ele>39</ele>
        <time>2014-09-03T10:16:06.000Z</time>
      </trkpt>
      <trkpt lat="43.65538" lon="7.09198">
        <ele>38.799999237061</ele>
        <time>2014-09-03T10:16:12.000Z</time>
      </trkpt>
      <trkpt lat="43.6553" lon="7.09181">
        <ele>38.799999237061</ele>
        <time>2014-09-03T10:16:15.000Z</time>
      </trkpt>
      <trkpt lat="43.65516" lon="7.09154">
        <ele>39</ele>
        <time>2014-09-03T10:16:20.000Z</time>
      </trkpt>
      <trkpt lat="43.65514" lon="7.09148">
        <ele>39</ele>
        <time>2014-09-03T10:16:21.000Z</time>
      </trkpt>
      <trkpt lat="43.65507" lon="7.09131">
        <ele>39</ele>
        <time>2014-09-03T10:16:24.000Z</time>
      </trkpt>
      <trkpt lat="43.65493" lon="7.09103">
        <ele>39.200000762939</ele>
        <time>2014-09-03T10:16:29.000Z</time>
      </trkpt>
      <trkpt lat="43.65481" lon="7.09079">
        <ele>39.200000762939</ele>
        <time>2014-09-03T10:16:33.000Z</time>
      </trkpt>
      <trkpt lat="43.65469" lon="7.09056">
        <ele>39.200000762939</ele>
        <time>2014-09-03T10:16:37.000Z</time>
      </trkpt>
      <trkpt lat="43.65457" lon="7.09032">
        <ele>39</ele>
        <time>2014-09-03T10:16:41.000Z</time>
      </trkpt>
      <trkpt lat="43.65445" lon="7.09011">
        <ele>39</ele>
        <time>2014-09-03T10:16:45.000Z</time>
      </trkpt>
      <trkpt lat="43.65434" lon="7.0899">
        <ele>39</ele>
        <time>2014-09-03T10:16:49.000Z</time>
      </trkpt>
      <trkpt lat="43.65424" lon="7.08969">
        <ele>38.799999237061</ele>
        <time>2014-09-03T10:16:53.000Z</time>
      </trkpt>
      <trkpt lat="43.65411" lon="7.08946">
        <ele>38.799999237061</ele>
        <time>2014-09-03T10:16:58.000Z</time>
      </trkpt>
      <trkpt lat="43.65399" lon="7.08921">
        <ele>38.599998474121</ele>
        <time>2014-09-03T10:17:03.000Z</time>
      </trkpt>
      <trkpt lat="43.65395" lon="7.08912">
        <ele>38.599998474121</ele>
        <time>2014-09-03T10:17:05.000Z</time>
      </trkpt>
      <trkpt lat="43.65388" lon="7.08904">
        <ele>38.799999237061</ele>
        <time>2014-09-03T10:17:07.000Z</time>
      </trkpt>
      <trkpt lat="43.65379" lon="7.08882">
        <ele>38.400001525879</ele>
        <time>2014-09-03T10:17:11.000Z</time>
      </trkpt>
      <trkpt lat="43.65367" lon="7.08856">
        <ele>38.200000762939</ele>
        <time>2014-09-03T10:17:16.000Z</time>
      </trkpt>
      <trkpt lat="43.65356" lon="7.08835">
        <ele>38.200000762939</ele>
        <time>2014-09-03T10:17:20.000Z</time>
      </trkpt>
      <trkpt lat="43.65346" lon="7.08813">
        <ele>38.799999237061</ele>
        <time>2014-09-03T10:17:24.000Z</time>
      </trkpt>
      <trkpt lat="43.65336" lon="7.08792">
        <ele>40</ele>
        <time>2014-09-03T10:17:28.000Z</time>
      </trkpt>
      <trkpt lat="43.65333" lon="7.08788">
        <ele>40.200000762939</ele>
        <time>2014-09-03T10:17:29.000Z</time>
      </trkpt>
      <trkpt lat="43.65322" lon="7.08776">
        <ele>41.400001525879</ele>
        <time>2014-09-03T10:17:33.000Z</time>
      </trkpt>
      <trkpt lat="43.65298" lon="7.08765">
        <ele>43.400001525879</ele>
        <time>2014-09-03T10:17:40.000Z</time>
      </trkpt>
      <trkpt lat="43.65285" lon="7.08757">
        <ele>44.599998474121</ele>
        <time>2014-09-03T10:17:44.000Z</time>
      </trkpt>
      <trkpt lat="43.6527" lon="7.08738">
        <ele>46.400001525879</ele>
        <time>2014-09-03T10:17:50.000Z</time>
      </trkpt>
      <trkpt lat="43.65259" lon="7.08729">
        <ele>48.799999237061</ele>
        <time>2014-09-03T10:17:55.000Z</time>
      </trkpt>
      <trkpt lat="43.6525" lon="7.08739">
        <ele>48.799999237061</ele>
        <time>2014-09-03T10:18:00.000Z</time>
      </trkpt>
      <trkpt lat="43.65242" lon="7.08748">
        <ele>48.799999237061</ele>
        <time>2014-09-03T10:18:05.000Z</time>
      </trkpt>
      <trkpt lat="43.65235" lon="7.08754">
        <ele>49.200000762939</ele>
        <time>2014-09-03T10:18:09.000Z</time>
      </trkpt>
      <trkpt lat="43.65225" lon="7.08751">
        <ele>50.400001525879</ele>
        <time>2014-09-03T10:18:14.000Z</time>
      </trkpt>
      <trkpt lat="43.65222" lon="7.08749">
        <ele>51</ele>
        <time>2014-09-03T10:18:16.000Z</time>
      </trkpt>
      <trkpt lat="43.65216" lon="7.08741">
        <ele>52</ele>
        <time>2014-09-03T10:18:20.000Z</time>
      </trkpt>
      <trkpt lat="43.65197" lon="7.08735">
        <ele>54.799999237061</ele>
        <time>2014-09-03T10:18:29.000Z</time>
      </trkpt>
      <trkpt lat="43.65183" lon="7.08727">
        <ele>57.599998474121</ele>
        <time>2014-09-03T10:18:37.000Z</time>
      </trkpt>
      <trkpt lat="43.65168" lon="7.08718">
        <ele>60.599998474121</ele>
        <time>2014-09-03T10:18:46.000Z</time>
      </trkpt>
      <trkpt lat="43.65154" lon="7.08717">
        <ele>63</ele>
        <time>2014-09-03T10:18:54.000Z</time>
      </trkpt>
      <trkpt lat="43.65138" lon="7.08717">
        <ele>66</ele>
        <time>2014-09-03T10:19:02.000Z</time>
      </trkpt>
      <trkpt lat="43.65126" lon="7.08722">
        <ele>68</ele>
        <time>2014-09-03T10:19:09.000Z</time>
      </trkpt>
      <trkpt lat="43.65117" lon="7.08729">
        <ele>69.199996948242</ele>
        <time>2014-09-03T10:19:15.000Z</time>
      </trkpt>
      <trkpt lat="43.65109" lon="7.08745">
        <ele>69.800003051758</ele>
        <time>2014-09-03T10:19:22.000Z</time>
      </trkpt>
      <trkpt lat="43.65101" lon="7.08764">
        <ele>71.599998474121</ele>
        <time>2014-09-03T10:19:30.000Z</time>
      </trkpt>
      <trkpt lat="43.65091" lon="7.08784">
        <ele>74.599998474121</ele>
        <time>2014-09-03T10:19:39.000Z</time>
      </trkpt>
      <trkpt lat="43.6508" lon="7.08803">
        <ele>77.400001525879</ele>
        <time>2014-09-03T10:19:48.000Z</time>
      </trkpt>
      <trkpt lat="43.65078" lon="7.08804">
        <ele>78</ele>
        <time>2014-09-03T10:19:49.000Z</time>
      </trkpt>
      <trkpt lat="43.65073" lon="7.088">
        <ele>79</ele>
        <time>2014-09-03T10:19:52.000Z</time>
      </trkpt>
      <trkpt lat="43.65072" lon="7.08798">
        <ele>79.199996948242</ele>
        <time>2014-09-03T10:19:53.000Z</time>
      </trkpt>
      <trkpt lat="43.65068" lon="7.08781">
        <ele>80.199996948242</ele>
        <time>2014-09-03T10:20:00.000Z</time>
      </trkpt>
      <trkpt lat="43.65062" lon="7.08764">
        <ele>81.599998474121</ele>
        <time>2014-09-03T10:20:06.000Z</time>
      </trkpt>
      <trkpt lat="43.65056" lon="7.08743">
        <ele>82.800003051758</ele>
        <time>2014-09-03T10:20:13.000Z</time>
      </trkpt>
      <trkpt lat="43.65054" lon="7.08723">
        <ele>83</ele>
        <time>2014-09-03T10:20:20.000Z</time>
      </trkpt>
      <trkpt lat="43.65056" lon="7.08709">
        <ele>82.400001525879</ele>
        <time>2014-09-03T10:20:25.000Z</time>
      </trkpt>
      <trkpt lat="43.65059" lon="7.08689">
        <ele>82.199996948242</ele>
        <time>2014-09-03T10:20:32.000Z</time>
      </trkpt>
      <trkpt lat="43.65057" lon="7.08676">
        <ele>83.599998474121</ele>
        <time>2014-09-03T10:20:37.000Z</time>
      </trkpt>
      <trkpt lat="43.65053" lon="7.08661">
        <ele>85.199996948242</ele>
        <time>2014-09-03T10:20:42.000Z</time>
      </trkpt>
      <trkpt lat="43.65052" lon="7.08658">
        <ele>85.400001525879</ele>
        <time>2014-09-03T10:20:44.000Z</time>
      </trkpt>
      <trkpt lat="43.65051" lon="7.08656">
        <ele>85.599998474121</ele>
        <time>2014-09-03T10:20:51.000Z</time>
      </trkpt>
      <trkpt lat="43.65054" lon="7.08657">
        <ele>85</ele>
        <time>2014-09-03T10:21:26.000Z</time>
      </trkpt>
      <trkpt lat="43.65054" lon="7.08657">
        <ele>85</ele>
        <time>2014-09-03T10:21:31.000Z</time>
      </trkpt>
      <trkpt lat="43.65051" lon="7.08651">
        <ele>85.199996948242</ele>
        <time>2014-09-03T10:21:37.000Z</time>
      </trkpt>
      <trkpt lat="43.65044" lon="7.08639">
        <ele>85.800003051758</ele>
        <time>2014-09-03T10:21:42.000Z</time>
      </trkpt>
      <trkpt lat="43.65032" lon="7.08631">
        <ele>87.400001525879</ele>
        <time>2014-09-03T10:21:49.000Z</time>
      </trkpt>
      <trkpt lat="43.6503" lon="7.08631">
        <ele>87.800003051758</ele>
        <time>2014-09-03T10:21:50.000Z</time>
      </trkpt>
      <trkpt lat="43.65019" lon="7.0864">
        <ele>90</ele>
        <time>2014-09-03T10:21:57.000Z</time>
      </trkpt>
      <trkpt lat="43.65017" lon="7.0864">
        <ele>90.400001525879</ele>
        <time>2014-09-03T10:21:58.000Z</time>
      </trkpt>
      <trkpt lat="43.65008" lon="7.08649">
        <ele>92.599998474121</ele>
        <time>2014-09-03T10:22:04.000Z</time>
      </trkpt>
      <trkpt lat="43.65001" lon="7.08657">
        <ele>94.400001525879</ele>
        <time>2014-09-03T10:22:09.000Z</time>
      </trkpt>
      <trkpt lat="43.64994" lon="7.08666">
        <ele>96.199996948242</ele>
        <time>2014-09-03T10:22:14.000Z</time>
      </trkpt>
      <trkpt lat="43.64988" lon="7.08679">
        <ele>97.599998474121</ele>
        <time>2014-09-03T10:22:20.000Z</time>
      </trkpt>
      <trkpt lat="43.64982" lon="7.087">
        <ele>99.199996948242</ele>
        <time>2014-09-03T10:22:28.000Z</time>
      </trkpt>
      <trkpt lat="43.64978" lon="7.08727">
        <ele>100.80000305176</ele>
        <time>2014-09-03T10:22:37.000Z</time>
      </trkpt>
      <trkpt lat="43.64974" lon="7.08744">
        <ele>102.19999694824</ele>
        <time>2014-09-03T10:22:43.000Z</time>
      </trkpt>
      <trkpt lat="43.64968" lon="7.08764">
        <ele>103.40000152588</ele>
        <time>2014-09-03T10:22:50.000Z</time>
      </trkpt>
      <trkpt lat="43.64963" lon="7.08774">
        <ele>104.40000152588</ele>
        <time>2014-09-03T10:22:55.000Z</time>
      </trkpt>
      <trkpt lat="43.64956" lon="7.08792">
        <ele>106.19999694824</ele>
        <time>2014-09-03T10:23:02.000Z</time>
      </trkpt>
      <trkpt lat="43.6495" lon="7.08808">
        <ele>107.59999847412</ele>
        <time>2014-09-03T10:23:08.000Z</time>
      </trkpt>
      <trkpt lat="43.64941" lon="7.08832">
        <ele>110.19999694824</ele>
        <time>2014-09-03T10:23:16.000Z</time>
      </trkpt>
      <trkpt lat="43.64931" lon="7.08842">
        <ele>113</ele>
        <time>2014-09-03T10:23:22.000Z</time>
      </trkpt>
      <trkpt lat="43.64915" lon="7.08844">
        <ele>116.40000152588</ele>
        <time>2014-09-03T10:23:30.000Z</time>
      </trkpt>
      <trkpt lat="43.64907" lon="7.08835">
        <ele>117.80000305176</ele>
        <time>2014-09-03T10:23:36.000Z</time>
      </trkpt>
      <trkpt lat="43.64903" lon="7.08824">
        <ele>118.19999694824</ele>
        <time>2014-09-03T10:23:42.000Z</time>
      </trkpt>
      <trkpt lat="43.64897" lon="7.08812">
        <ele>120</ele>
        <time>2014-09-03T10:23:48.000Z</time>
      </trkpt>
      <trkpt lat="43.64891" lon="7.08802">
        <ele>121.40000152588</ele>
        <time>2014-09-03T10:23:54.000Z</time>
      </trkpt>
      <trkpt lat="43.64885" lon="7.08789">
        <ele>123.40000152588</ele>
        <time>2014-09-03T10:24:01.000Z</time>
      </trkpt>
      <trkpt lat="43.64878" lon="7.08779">
        <ele>125.19999694824</ele>
        <time>2014-09-03T10:24:08.000Z</time>
      </trkpt>
      <trkpt lat="43.64871" lon="7.08769">
        <ele>127.19999694824</ele>
        <time>2014-09-03T10:24:15.000Z</time>
      </trkpt>
      <trkpt lat="43.64863" lon="7.0876">
        <ele>129.19999694824</ele>
        <time>2014-09-03T10:24:22.000Z</time>
      </trkpt>
      <trkpt lat="43.64856" lon="7.08751">
        <ele>131</ele>
        <time>2014-09-03T10:24:28.000Z</time>
      </trkpt>
      <trkpt lat="43.6485" lon="7.08739">
        <ele>132.60000610352</ele>
        <time>2014-09-03T10:24:35.000Z</time>
      </trkpt>
      <trkpt lat="43.64844" lon="7.08729">
        <ele>133.80000305176</ele>
        <time>2014-09-03T10:24:41.000Z</time>
      </trkpt>
      <trkpt lat="43.64837" lon="7.08718">
        <ele>135.39999389648</ele>
        <time>2014-09-03T10:24:48.000Z</time>
      </trkpt>
      <trkpt lat="43.64827" lon="7.08708">
        <ele>138</ele>
        <time>2014-09-03T10:24:56.000Z</time>
      </trkpt>
      <trkpt lat="43.64817" lon="7.08692">
        <ele>140.19999694824</ele>
        <time>2014-09-03T10:25:06.000Z</time>
      </trkpt>
      <trkpt lat="43.64808" lon="7.08677">
        <ele>142</ele>
        <time>2014-09-03T10:25:14.000Z</time>
      </trkpt>
      <trkpt lat="43.64801" lon="7.08664">
        <ele>143.60000610352</ele>
        <time>2014-09-03T10:25:20.000Z</time>
      </trkpt>
      <trkpt lat="43.64796" lon="7.08657">
        <ele>145</ele>
        <time>2014-09-03T10:25:23.000Z</time>
      </trkpt>
      <trkpt lat="43.6479" lon="7.08639">
        <ele>147.19999694824</ele>
        <time>2014-09-03T10:25:30.000Z</time>
      </trkpt>
      <trkpt lat="43.64786" lon="7.08617">
        <ele>149</ele>
        <time>2014-09-03T10:25:38.000Z</time>
      </trkpt>
      <trkpt lat="43.64781" lon="7.08597">
        <ele>151</ele>
        <time>2014-09-03T10:25:46.000Z</time>
      </trkpt>
      <trkpt lat="43.64776" lon="7.0858">
        <ele>152.60000610352</ele>
        <time>2014-09-03T10:25:52.000Z</time>
      </trkpt>
      <trkpt lat="43.64768" lon="7.08561">
        <ele>153</ele>
        <time>2014-09-03T10:25:59.000Z</time>
      </trkpt>
      <trkpt lat="43.64757" lon="7.08543">
        <ele>154</ele>
        <time>2014-09-03T10:26:06.000Z</time>
      </trkpt>
      <trkpt lat="43.64748" lon="7.08533">
        <ele>155.39999389648</ele>
        <time>2014-09-03T10:26:11.000Z</time>
      </trkpt>
      <trkpt lat="43.64736" lon="7.08522">
        <ele>157.60000610352</ele>
        <time>2014-09-03T10:26:17.000Z</time>
      </trkpt>
      <trkpt lat="43.64723" lon="7.08502">
        <ele>158.80000305176</ele>
        <time>2014-09-03T10:26:24.000Z</time>
      </trkpt>
      <trkpt lat="43.64711" lon="7.08476">
        <ele>157.80000305176</ele>
        <time>2014-09-03T10:26:30.000Z</time>
      </trkpt>
      <trkpt lat="43.64704" lon="7.08449">
        <ele>153.80000305176</ele>
        <time>2014-09-03T10:26:35.000Z</time>
      </trkpt>
      <trkpt lat="43.64704" lon="7.08442">
        <ele>152.39999389648</ele>
        <time>2014-09-03T10:26:36.000Z</time>
      </trkpt>
      <trkpt lat="43.64708" lon="7.08409">
        <ele>145</ele>
        <time>2014-09-03T10:26:42.000Z</time>
      </trkpt>
      <trkpt lat="43.64702" lon="7.08395">
        <ele>143</ele>
        <time>2014-09-03T10:26:45.000Z</time>
      </trkpt>
      <trkpt lat="43.64683" lon="7.08372">
        <ele>141.60000610352</ele>
        <time>2014-09-03T10:26:51.000Z</time>
      </trkpt>
      <trkpt lat="43.64669" lon="7.0836">
        <ele>138.80000305176</ele>
        <time>2014-09-03T10:26:55.000Z</time>
      </trkpt>
      <trkpt lat="43.64646" lon="7.08356">
        <ele>138.39999389648</ele>
        <time>2014-09-03T10:27:01.000Z</time>
      </trkpt>
      <trkpt lat="43.64625" lon="7.08356">
        <ele>139</ele>
        <time>2014-09-03T10:27:06.000Z</time>
      </trkpt>
      <trkpt lat="43.64606" lon="7.08359">
        <ele>140.80000305176</ele>
        <time>2014-09-03T10:27:11.000Z</time>
      </trkpt>
      <trkpt lat="43.64587" lon="7.0836">
        <ele>142.60000610352</ele>
        <time>2014-09-03T10:27:16.000Z</time>
      </trkpt>
      <trkpt lat="43.64569" lon="7.0836">
        <ele>144.39999389648</ele>
        <time>2014-09-03T10:27:21.000Z</time>
      </trkpt>
      <trkpt lat="43.6455" lon="7.08358">
        <ele>145.80000305176</ele>
        <time>2014-09-03T10:27:26.000Z</time>
      </trkpt>
      <trkpt lat="43.64531" lon="7.08357">
        <ele>146.19999694824</ele>
        <time>2014-09-03T10:27:31.000Z</time>
      </trkpt>
      <trkpt lat="43.64511" lon="7.08352">
        <ele>147.19999694824</ele>
        <time>2014-09-03T10:27:36.000Z</time>
      </trkpt>
      <trkpt lat="43.64499" lon="7.08345">
        <ele>147.80000305176</ele>
        <time>2014-09-03T10:27:39.000Z</time>
      </trkpt>
      <trkpt lat="43.64475" lon="7.08327">
        <ele>147.60000610352</ele>
        <time>2014-09-03T10:27:45.000Z</time>
      </trkpt>
      <trkpt lat="43.64472" lon="7.08324">
        <ele>147.80000305176</ele>
        <time>2014-09-03T10:27:46.000Z</time>
      </trkpt>
      <trkpt lat="43.64453" lon="7.08309">
        <ele>148.80000305176</ele>
        <time>2014-09-03T10:27:51.000Z</time>
      </trkpt>
      <trkpt lat="43.64446" lon="7.08303">
        <ele>149.60000610352</ele>
        <time>2014-09-03T10:27:53.000Z</time>
      </trkpt>
      <trkpt lat="43.64424" lon="7.08288">
        <ele>151.19999694824</ele>
        <time>2014-09-03T10:27:59.000Z</time>
      </trkpt>
      <trkpt lat="43.6442" lon="7.08285">
        <ele>151.39999389648</ele>
        <time>2014-09-03T10:28:00.000Z</time>
      </trkpt>
      <trkpt lat="43.64415" lon="7.0827">
        <ele>150.39999389648</ele>
        <time>2014-09-03T10:28:03.000Z</time>
      </trkpt>
      <trkpt lat="43.6442" lon="7.08254">
        <ele>147.60000610352</ele>
        <time>2014-09-03T10:28:06.000Z</time>
      </trkpt>
      <trkpt lat="43.64423" lon="7.08249">
        <ele>146.80000305176</ele>
        <time>2014-09-03T10:28:07.000Z</time>
      </trkpt>
      <trkpt lat="43.64434" lon="7.08231">
        <ele>144.60000610352</ele>
        <time>2014-09-03T10:28:11.000Z</time>
      </trkpt>
      <trkpt lat="43.64446" lon="7.08202">
        <ele>143.39999389648</ele>
        <time>2014-09-03T10:28:17.000Z</time>
      </trkpt>
      <trkpt lat="43.64447" lon="7.08197">
        <ele>143.39999389648</ele>
        <time>2014-09-03T10:28:18.000Z</time>
      </trkpt>
      <trkpt lat="43.64452" lon="7.08171">
        <ele>143.60000610352</ele>
        <time>2014-09-03T10:28:24.000Z</time>
      </trkpt>
      <trkpt lat="43.64458" lon="7.08145">
        <ele>141.60000610352</ele>
        <time>2014-09-03T10:28:31.000Z</time>
      </trkpt>
      <trkpt lat="43.64457" lon="7.08121">
        <ele>141</ele>
        <time>2014-09-03T10:28:37.000Z</time>
      </trkpt>
      <trkpt lat="43.64455" lon="7.08114">
        <ele>141.19999694824</ele>
        <time>2014-09-03T10:28:39.000Z</time>
      </trkpt>
      <trkpt lat="43.64457" lon="7.081">
        <ele>140.19999694824</ele>
        <time>2014-09-03T10:28:44.000Z</time>
      </trkpt>
      <trkpt lat="43.64457" lon="7.08088">
        <ele>140.60000610352</ele>
        <time>2014-09-03T10:28:49.000Z</time>
      </trkpt>
      <trkpt lat="43.64452" lon="7.08078">
        <ele>142.19999694824</ele>
        <time>2014-09-03T10:28:54.000Z</time>
      </trkpt>
      <trkpt lat="43.64438" lon="7.08073">
        <ele>144</ele>
        <time>2014-09-03T10:29:00.000Z</time>
      </trkpt>
      <trkpt lat="43.64419" lon="7.08064">
        <ele>143.60000610352</ele>
        <time>2014-09-03T10:29:06.000Z</time>
      </trkpt>
      <trkpt lat="43.64401" lon="7.08058">
        <ele>143.19999694824</ele>
        <time>2014-09-03T10:29:11.000Z</time>
      </trkpt>
      <trkpt lat="43.64381" lon="7.08056">
        <ele>143.39999389648</ele>
        <time>2014-09-03T10:29:16.000Z</time>
      </trkpt>
      <trkpt lat="43.6436" lon="7.08058">
        <ele>144.19999694824</ele>
        <time>2014-09-03T10:29:21.000Z</time>
      </trkpt>
      <trkpt lat="43.64338" lon="7.08059">
        <ele>146.19999694824</ele>
        <time>2014-09-03T10:29:26.000Z</time>
      </trkpt>
      <trkpt lat="43.64334" lon="7.08059">
        <ele>146.60000610352</ele>
        <time>2014-09-03T10:29:27.000Z</time>
      </trkpt>
      <trkpt lat="43.64317" lon="7.08056">
        <ele>146.19999694824</ele>
        <time>2014-09-03T10:29:31.000Z</time>
      </trkpt>
      <trkpt lat="43.64292" lon="7.08048">
        <ele>145.60000610352</ele>
        <time>2014-09-03T10:29:37.000Z</time>
      </trkpt>
      <trkpt lat="43.64288" lon="7.08047">
        <ele>145.39999389648</ele>
        <time>2014-09-03T10:29:38.000Z</time>
      </trkpt>
      <trkpt lat="43.64284" lon="7.08048">
        <ele>145.39999389648</ele>
        <time>2014-09-03T10:29:39.000Z</time>
      </trkpt>
      <trkpt lat="43.64262" lon="7.08035">
        <ele>145</ele>
        <time>2014-09-03T10:29:45.000Z</time>
      </trkpt>
      <trkpt lat="43.64258" lon="7.08032">
        <ele>145</ele>
        <time>2014-09-03T10:29:46.000Z</time>
      </trkpt>
      <trkpt lat="43.6424" lon="7.08013">
        <ele>145</ele>
        <time>2014-09-03T10:29:52.000Z</time>
      </trkpt>
      <trkpt lat="43.64233" lon="7.0801">
        <ele>145</ele>
        <time>2014-09-03T10:29:54.000Z</time>
      </trkpt>
      <trkpt lat="43.64228" lon="7.08002">
        <ele>145</ele>
        <time>2014-09-03T10:29:58.000Z</time>
      </trkpt>
      <trkpt lat="43.64224" lon="7.07999">
        <ele>145</ele>
        <time>2014-09-03T10:30:10.000Z</time>
      </trkpt>
      <trkpt lat="43.64221" lon="7.07995">
        <ele>145</ele>
        <time>2014-09-03T10:30:12.000Z</time>
      </trkpt>
      <trkpt lat="43.64217" lon="7.07971">
        <ele>145.19999694824</ele>
        <time>2014-09-03T10:30:18.000Z</time>
      </trkpt>
      <trkpt lat="43.64215" lon="7.07944">
        <ele>145.60000610352</ele>
        <time>2014-09-03T10:30:23.000Z</time>
      </trkpt>
      <trkpt lat="43.64213" lon="7.0792">
        <ele>145.19999694824</ele>
        <time>2014-09-03T10:30:27.000Z</time>
      </trkpt>
      <trkpt lat="43.64207" lon="7.0789">
        <ele>145.39999389648</ele>
        <time>2014-09-03T10:30:32.000Z</time>
      </trkpt>
      <trkpt lat="43.64206" lon="7.07884">
        <ele>145.60000610352</ele>
        <time>2014-09-03T10:30:33.000Z</time>
      </trkpt>
      <trkpt lat="43.64199" lon="7.07862">
        <ele>146</ele>
        <time>2014-09-03T10:30:37.000Z</time>
      </trkpt>
      <trkpt lat="43.64193" lon="7.0783">
        <ele>146.60000610352</ele>
        <time>2014-09-03T10:30:44.000Z</time>
      </trkpt>
      <trkpt lat="43.6419" lon="7.07803">
        <ele>148</ele>
        <time>2014-09-03T10:30:50.000Z</time>
      </trkpt>
      <trkpt lat="43.64192" lon="7.07774">
        <ele>149.19999694824</ele>
        <time>2014-09-03T10:30:56.000Z</time>
      </trkpt>
      <trkpt lat="43.64193" lon="7.0777">
        <ele>149.39999389648</ele>
        <time>2014-09-03T10:30:57.000Z</time>
      </trkpt>
      <trkpt lat="43.64195" lon="7.07768">
        <ele>149.39999389648</ele>
        <time>2014-09-03T10:30:58.000Z</time>
      </trkpt>
      <trkpt lat="43.64204" lon="7.0777">
        <ele>148.80000305176</ele>
        <time>2014-09-03T10:31:02.000Z</time>
      </trkpt>
      <trkpt lat="43.64208" lon="7.07773">
        <ele>148.39999389648</ele>
        <time>2014-09-03T10:31:04.000Z</time>
      </trkpt>
      <trkpt lat="43.64212" lon="7.07782">
        <ele>147.80000305176</ele>
        <time>2014-09-03T10:31:10.000Z</time>
      </trkpt>
      <trkpt lat="43.64219" lon="7.07787">
        <ele>147.19999694824</ele>
        <time>2014-09-03T10:32:09.000Z</time>
      </trkpt>
      <trkpt lat="43.64226" lon="7.07793">
        <ele>146.60000610352</ele>
        <time>2014-09-03T10:32:11.000Z</time>
      </trkpt>
      <trkpt lat="43.64234" lon="7.07795">
        <ele>146.19999694824</ele>
        <time>2014-09-03T10:32:13.000Z</time>
      </trkpt>
      <trkpt lat="43.64244" lon="7.07802">
        <ele>145.39999389648</ele>
        <time>2014-09-03T10:32:17.000Z</time>
      </trkpt>
      <trkpt lat="43.64247" lon="7.07792">
        <ele>146.19999694824</ele>
        <time>2014-09-03T10:32:20.000Z</time>
      </trkpt>
      <trkpt lat="43.64244" lon="7.07767">
        <ele>148.39999389648</ele>
        <time>2014-09-03T10:32:25.000Z</time>
      </trkpt>
      <trkpt lat="43.64251" lon="7.0775">
        <ele>149.60000610352</ele>
        <time>2014-09-03T10:32:28.000Z</time>
      </trkpt>
      <trkpt lat="43.64256" lon="7.07744">
        <ele>150</ele>
        <time>2014-09-03T10:32:29.000Z</time>
      </trkpt>
      <trkpt lat="43.6426" lon="7.0774">
        <ele>150.39999389648</ele>
        <time>2014-09-03T10:32:30.000Z</time>
      </trkpt>
      <trkpt lat="43.64278" lon="7.07732">
        <ele>149</ele>
        <time>2014-09-03T10:32:35.000Z</time>
      </trkpt>
      <trkpt lat="43.64283" lon="7.0773">
        <ele>148.19999694824</ele>
        <time>2014-09-03T10:32:38.000Z</time>
      </trkpt>
      <trkpt lat="43.64284" lon="7.07729">
        <ele>148</ele>
        <time>2014-09-03T10:32:39.000Z</time>
      </trkpt>
      <trkpt lat="43.64296" lon="7.0773">
        <ele>145.19999694824</ele>
        <time>2014-09-03T10:32:44.000Z</time>
      </trkpt>
      <trkpt lat="43.64305" lon="7.07731">
        <ele>142.80000305176</ele>
        <time>2014-09-03T10:32:48.000Z</time>
      </trkpt>
      <trkpt lat="43.64317" lon="7.07723">
        <ele>141</ele>
        <time>2014-09-03T10:32:52.000Z</time>
      </trkpt>
      <trkpt lat="43.64324" lon="7.07716">
        <ele>140.19999694824</ele>
        <time>2014-09-03T10:32:54.000Z</time>
      </trkpt>
      <trkpt lat="43.64346" lon="7.07703">
        <ele>138</ele>
        <time>2014-09-03T10:32:59.000Z</time>
      </trkpt>
      <trkpt lat="43.64352" lon="7.07701">
        <ele>137.19999694824</ele>
        <time>2014-09-03T10:33:00.000Z</time>
      </trkpt>
      <trkpt lat="43.64368" lon="7.07693">
        <ele>136</ele>
        <time>2014-09-03T10:33:04.000Z</time>
      </trkpt>
      <trkpt lat="43.64371" lon="7.07691">
        <ele>135.60000610352</ele>
        <time>2014-09-03T10:33:05.000Z</time>
      </trkpt>
      <trkpt lat="43.64375" lon="7.07691">
        <ele>135.39999389648</ele>
        <time>2014-09-03T10:33:06.000Z</time>
      </trkpt>
      <trkpt lat="43.64392" lon="7.07674">
        <ele>134.39999389648</ele>
        <time>2014-09-03T10:33:11.000Z</time>
      </trkpt>
      <trkpt lat="43.64401" lon="7.07664">
        <ele>133.80000305176</ele>
        <time>2014-09-03T10:33:14.000Z</time>
      </trkpt>
      <trkpt lat="43.64402" lon="7.0766">
        <ele>134</ele>
        <time>2014-09-03T10:33:15.000Z</time>
      </trkpt>
      <trkpt lat="43.64403" lon="7.07658">
        <ele>134</ele>
        <time>2014-09-03T10:33:16.000Z</time>
      </trkpt>
      <trkpt lat="43.64403" lon="7.07645">
        <ele>134.80000305176</ele>
        <time>2014-09-03T10:33:21.000Z</time>
      </trkpt>
      <trkpt lat="43.64407" lon="7.07629">
        <ele>135</ele>
        <time>2014-09-03T10:33:25.000Z</time>
      </trkpt>
      <trkpt lat="43.64417" lon="7.07614">
        <ele>134.19999694824</ele>
        <time>2014-09-03T10:33:29.000Z</time>
      </trkpt>
      <trkpt lat="43.6442" lon="7.07608">
        <ele>134</ele>
        <time>2014-09-03T10:33:30.000Z</time>
      </trkpt>
      <trkpt lat="43.64425" lon="7.07597">
        <ele>133.60000610352</ele>
        <time>2014-09-03T10:33:32.000Z</time>
      </trkpt>
      <trkpt lat="43.64435" lon="7.07587">
        <ele>132.39999389648</ele>
        <time>2014-09-03T10:33:35.000Z</time>
      </trkpt>
      <trkpt lat="43.64459" lon="7.07569">
        <ele>131.80000305176</ele>
        <time>2014-09-03T10:33:40.000Z</time>
      </trkpt>
      <trkpt lat="43.64465" lon="7.07561">
        <ele>132</ele>
        <time>2014-09-03T10:33:42.000Z</time>
      </trkpt>
      <trkpt lat="43.64469" lon="7.0756">
        <ele>131.80000305176</ele>
        <time>2014-09-03T10:33:44.000Z</time>
      </trkpt>
      <trkpt lat="43.6447" lon="7.07563">
        <ele>131.19999694824</ele>
        <time>2014-09-03T10:33:53.000Z</time>
      </trkpt>
      <trkpt lat="43.64475" lon="7.07567">
        <ele>130.39999389648</ele>
        <time>2014-09-03T10:34:05.000Z</time>
      </trkpt>
      <trkpt lat="43.64483" lon="7.07572">
        <ele>129</ele>
        <time>2014-09-03T10:34:10.000Z</time>
      </trkpt>
      <trkpt lat="43.64486" lon="7.07575">
        <ele>128.39999389648</ele>
        <time>2014-09-03T10:34:12.000Z</time>
      </trkpt>
      <trkpt lat="43.64499" lon="7.07581">
        <ele>126.80000305176</ele>
        <time>2014-09-03T10:34:17.000Z</time>
      </trkpt>
      <trkpt lat="43.64502" lon="7.07581">
        <ele>126.59999847412</ele>
        <time>2014-09-03T10:34:18.000Z</time>
      </trkpt>
      <trkpt lat="43.64511" lon="7.07588">
        <ele>125.59999847412</ele>
        <time>2014-09-03T10:34:21.000Z</time>
      </trkpt>
      <trkpt lat="43.64517" lon="7.07597">
        <ele>124.59999847412</ele>
        <time>2014-09-03T10:34:23.000Z</time>
      </trkpt>
      <trkpt lat="43.64526" lon="7.07613">
        <ele>123.40000152588</ele>
        <time>2014-09-03T10:34:26.000Z</time>
      </trkpt>
      <trkpt lat="43.64527" lon="7.07627">
        <ele>122.80000305176</ele>
        <time>2014-09-03T10:34:28.000Z</time>
      </trkpt>
      <trkpt lat="43.64533" lon="7.07644">
        <ele>121.59999847412</ele>
        <time>2014-09-03T10:34:31.000Z</time>
      </trkpt>
      <trkpt lat="43.64548" lon="7.07673">
        <ele>117.80000305176</ele>
        <time>2014-09-03T10:34:36.000Z</time>
      </trkpt>
      <trkpt lat="43.64555" lon="7.07676">
        <ele>116.40000152588</ele>
        <time>2014-09-03T10:34:38.000Z</time>
      </trkpt>
      <trkpt lat="43.64563" lon="7.07679">
        <ele>115.19999694824</ele>
        <time>2014-09-03T10:34:40.000Z</time>
      </trkpt>
      <trkpt lat="43.64578" lon="7.07674">
        <ele>114</ele>
        <time>2014-09-03T10:34:43.000Z</time>
      </trkpt>
      <trkpt lat="43.64582" lon="7.07672">
        <ele>113.80000305176</ele>
        <time>2014-09-03T10:34:44.000Z</time>
      </trkpt>
      <trkpt lat="43.64589" lon="7.07666">
        <ele>113.80000305176</ele>
        <time>2014-09-03T10:34:46.000Z</time>
      </trkpt>
      <trkpt lat="43.64593" lon="7.07665">
        <ele>113.40000152588</ele>
        <time>2014-09-03T10:34:52.000Z</time>
      </trkpt>
      <trkpt lat="43.64595" lon="7.07665">
        <ele>113.19999694824</ele>
        <time>2014-09-03T10:35:08.000Z</time>
      </trkpt>
      <trkpt lat="43.64598" lon="7.07665">
        <ele>112.80000305176</ele>
        <time>2014-09-03T10:35:15.000Z</time>
      </trkpt>
      <trkpt lat="43.64604" lon="7.07669">
        <ele>111.59999847412</ele>
        <time>2014-09-03T10:35:20.000Z</time>
      </trkpt>
      <trkpt lat="43.64606" lon="7.07672">
        <ele>111.19999694824</ele>
        <time>2014-09-03T10:35:21.000Z</time>
      </trkpt>
      <trkpt lat="43.64609" lon="7.07685">
        <ele>109.40000152588</ele>
        <time>2014-09-03T10:35:26.000Z</time>
      </trkpt>
      <trkpt lat="43.6461" lon="7.07687">
        <ele>109</ele>
        <time>2014-09-03T10:35:27.000Z</time>
      </trkpt>
      <trkpt lat="43.6461" lon="7.07689">
        <ele>108.80000305176</ele>
        <time>2014-09-03T10:35:28.000Z</time>
      </trkpt>
      <trkpt lat="43.6461" lon="7.07702">
        <ele>107</ele>
        <time>2014-09-03T10:35:33.000Z</time>
      </trkpt>
      <trkpt lat="43.64609" lon="7.07707">
        <ele>106.40000152588</ele>
        <time>2014-09-03T10:35:35.000Z</time>
      </trkpt>
      <trkpt lat="43.64608" lon="7.07712">
        <ele>105.80000305176</ele>
        <time>2014-09-03T10:35:37.000Z</time>
      </trkpt>
      <trkpt lat="43.64613" lon="7.07722">
        <ele>104.19999694824</ele>
        <time>2014-09-03T10:35:41.000Z</time>
      </trkpt>
      <trkpt lat="43.64623" lon="7.07733">
        <ele>102.40000152588</ele>
        <time>2014-09-03T10:35:44.000Z</time>
      </trkpt>
      <trkpt lat="43.64625" lon="7.07749">
        <ele>100.19999694824</ele>
        <time>2014-09-03T10:35:47.000Z</time>
      </trkpt>
      <trkpt lat="43.64626" lon="7.07761">
        <ele>99</ele>
        <time>2014-09-03T10:35:49.000Z</time>
      </trkpt>
      <trkpt lat="43.64626" lon="7.07769">
        <ele>97.800003051758</ele>
        <time>2014-09-03T10:35:51.000Z</time>
      </trkpt>
      <trkpt lat="43.64631" lon="7.07777">
        <ele>96.599998474121</ele>
        <time>2014-09-03T10:35:54.000Z</time>
      </trkpt>
      <trkpt lat="43.64636" lon="7.07779">
        <ele>96.199996948242</ele>
        <time>2014-09-03T10:35:56.000Z</time>
      </trkpt>
      <trkpt lat="43.64656" lon="7.07797">
        <ele>93.599998474121</ele>
        <time>2014-09-03T10:36:02.000Z</time>
      </trkpt>
      <trkpt lat="43.64665" lon="7.07798">
        <ele>93</ele>
        <time>2014-09-03T10:36:05.000Z</time>
      </trkpt>
      <trkpt lat="43.64673" lon="7.07803">
        <ele>92.199996948242</ele>
        <time>2014-09-03T10:36:09.000Z</time>
      </trkpt>
      <trkpt lat="43.64673" lon="7.07804">
        <ele>92</ele>
        <time>2014-09-03T10:36:30.000Z</time>
      </trkpt>
      <trkpt lat="43.64673" lon="7.07813">
        <ele>91</ele>
        <time>2014-09-03T10:36:41.000Z</time>
      </trkpt>
      <trkpt lat="43.64673" lon="7.07817">
        <ele>90.400001525879</ele>
        <time>2014-09-03T10:36:42.000Z</time>
      </trkpt>
      <trkpt lat="43.64667" lon="7.07827">
        <ele>88.599998474121</ele>
        <time>2014-09-03T10:36:46.000Z</time>
      </trkpt>
      <trkpt lat="43.6466" lon="7.07835">
        <ele>87.800003051758</ele>
        <time>2014-09-03T10:36:49.000Z</time>
      </trkpt>
      <trkpt lat="43.64657" lon="7.0784">
        <ele>87.199996948242</ele>
        <time>2014-09-03T10:36:51.000Z</time>
      </trkpt>
      <trkpt lat="43.64652" lon="7.07856">
        <ele>85.400001525879</ele>
        <time>2014-09-03T10:36:56.000Z</time>
      </trkpt>
      <trkpt lat="43.64652" lon="7.07859">
        <ele>85</ele>
        <time>2014-09-03T10:36:57.000Z</time>
      </trkpt>
      <trkpt lat="43.64653" lon="7.07865">
        <ele>84.400001525879</ele>
        <time>2014-09-03T10:36:59.000Z</time>
      </trkpt>
      <trkpt lat="43.64646" lon="7.07878">
        <ele>83.599998474121</ele>
        <time>2014-09-03T10:37:04.000Z</time>
      </trkpt>
      <trkpt lat="43.64644" lon="7.07878">
        <ele>83.599998474121</ele>
        <time>2014-09-03T10:37:05.000Z</time>
      </trkpt>
      <trkpt lat="43.64628" lon="7.07871">
        <ele>84.800003051758</ele>
        <time>2014-09-03T10:37:11.000Z</time>
      </trkpt>
      <trkpt lat="43.64626" lon="7.07871">
        <ele>85</ele>
        <time>2014-09-03T10:37:12.000Z</time>
      </trkpt>
      <trkpt lat="43.6462" lon="7.07874">
        <ele>85.199996948242</ele>
        <time>2014-09-03T10:37:14.000Z</time>
      </trkpt>
      <trkpt lat="43.64616" lon="7.07889">
        <ele>85</ele>
        <time>2014-09-03T10:37:19.000Z</time>
      </trkpt>
      <trkpt lat="43.64617" lon="7.07893">
        <ele>84.800003051758</ele>
        <time>2014-09-03T10:37:20.000Z</time>
      </trkpt>
      <trkpt lat="43.64623" lon="7.07912">
        <ele>83.599998474121</ele>
        <time>2014-09-03T10:37:24.000Z</time>
      </trkpt>
      <trkpt lat="43.64635" lon="7.07935">
        <ele>82.199996948242</ele>
        <time>2014-09-03T10:37:29.000Z</time>
      </trkpt>
      <trkpt lat="43.64641" lon="7.07943">
        <ele>81.400001525879</ele>
        <time>2014-09-03T10:37:31.000Z</time>
      </trkpt>
      <trkpt lat="43.64658" lon="7.0796">
        <ele>79.800003051758</ele>
        <time>2014-09-03T10:37:35.000Z</time>
      </trkpt>
      <trkpt lat="43.64663" lon="7.07963">
        <ele>79.400001525879</ele>
        <time>2014-09-03T10:37:36.000Z</time>
      </trkpt>
      <trkpt lat="43.64675" lon="7.07965">
        <ele>78.599998474121</ele>
        <time>2014-09-03T10:37:38.000Z</time>
      </trkpt>
      <trkpt lat="43.64688" lon="7.07967">
        <ele>77.599998474121</ele>
        <time>2014-09-03T10:37:41.000Z</time>
      </trkpt>
      <trkpt lat="43.64699" lon="7.07978">
        <ele>76</ele>
        <time>2014-09-03T10:37:44.000Z</time>
      </trkpt>
      <trkpt lat="43.64717" lon="7.07985">
        <ele>73.599998474121</ele>
        <time>2014-09-03T10:37:48.000Z</time>
      </trkpt>
      <trkpt lat="43.64728" lon="7.07988">
        <ele>72</ele>
        <time>2014-09-03T10:37:50.000Z</time>
      </trkpt>
      <trkpt lat="43.64746" lon="7.0799">
        <ele>70</ele>
        <time>2014-09-03T10:37:53.000Z</time>
      </trkpt>
      <trkpt lat="43.64765" lon="7.08004">
        <ele>68</ele>
        <time>2014-09-03T10:37:57.000Z</time>
      </trkpt>
      <trkpt lat="43.64779" lon="7.0802">
        <ele>66.400001525879</ele>
        <time>2014-09-03T10:38:01.000Z</time>
      </trkpt>
      <trkpt lat="43.64794" lon="7.08033">
        <ele>64.599998474121</ele>
        <time>2014-09-03T10:38:05.000Z</time>
      </trkpt>
      <trkpt lat="43.64796" lon="7.08037">
        <ele>64.400001525879</ele>
        <time>2014-09-03T10:38:06.000Z</time>
      </trkpt>
      <trkpt lat="43.64794" lon="7.08048">
        <ele>65.199996948242</ele>
        <time>2014-09-03T10:38:09.000Z</time>
      </trkpt>
      <trkpt lat="43.64786" lon="7.08057">
        <ele>67</ele>
        <time>2014-09-03T10:38:13.000Z</time>
      </trkpt>
      <trkpt lat="43.64784" lon="7.08066">
        <ele>67.800003051758</ele>
        <time>2014-09-03T10:38:18.000Z</time>
      </trkpt>
      <trkpt lat="43.64784" lon="7.08067">
        <ele>68</ele>
        <time>2014-09-03T10:38:19.000Z</time>
      </trkpt>
      <trkpt lat="43.64784" lon="7.08068">
        <ele>68</ele>
        <time>2014-09-03T10:38:20.000Z</time>
      </trkpt>
      <trkpt lat="43.64784" lon="7.08068">
        <ele>67.800003051758</ele>
        <time>2014-09-03T10:38:21.000Z</time>
      </trkpt>
      <trkpt lat="43.64785" lon="7.08059">
        <ele>67.199996948242</ele>
        <time>2014-09-03T10:38:26.000Z</time>
      </trkpt>
      <trkpt lat="43.6479" lon="7.0805">
        <ele>66</ele>
        <time>2014-09-03T10:38:31.000Z</time>
      </trkpt>
      <trkpt lat="43.64789" lon="7.08051">
        <ele>66.199996948242</ele>
        <time>2014-09-03T10:38:33.000Z</time>
      </trkpt>
      <trkpt lat="43.64789" lon="7.08066">
        <ele>67</ele>
        <time>2014-09-03T10:38:38.000Z</time>
      </trkpt>
      <trkpt lat="43.64791" lon="7.08075">
        <ele>67</ele>
        <time>2014-09-03T10:38:43.000Z</time>
      </trkpt>
      <trkpt lat="43.64792" lon="7.08077">
        <ele>67</ele>
        <time>2014-09-03T10:38:51.000Z</time>
      </trkpt>
      <trkpt lat="43.64797" lon="7.0808">
        <ele>66.400001525879</ele>
        <time>2014-09-03T10:39:01.000Z</time>
      </trkpt>
      <trkpt lat="43.64803" lon="7.08095">
        <ele>67.199996948242</ele>
        <time>2014-09-03T10:39:07.000Z</time>
      </trkpt>
      <trkpt lat="43.64806" lon="7.08103">
        <ele>67.599998474121</ele>
        <time>2014-09-03T10:39:10.000Z</time>
      </trkpt>
      <trkpt lat="43.6481" lon="7.08115">
        <ele>68.199996948242</ele>
        <time>2014-09-03T10:39:14.000Z</time>
      </trkpt>
      <trkpt lat="43.64812" lon="7.08121">
        <ele>68.800003051758</ele>
        <time>2014-09-03T10:39:16.000Z</time>
      </trkpt>
      <trkpt lat="43.64817" lon="7.08141">
        <ele>71.599998474121</ele>
        <time>2014-09-03T10:39:21.000Z</time>
      </trkpt>
      <trkpt lat="43.64823" lon="7.08163">
        <ele>74.400001525879</ele>
        <time>2014-09-03T10:39:26.000Z</time>
      </trkpt>
      <trkpt lat="43.64836" lon="7.08176">
        <ele>75</ele>
        <time>2014-09-03T10:39:31.000Z</time>
      </trkpt>
      <trkpt lat="43.6484" lon="7.08177">
        <ele>74</ele>
        <time>2014-09-03T10:39:32.000Z</time>
      </trkpt>
      <trkpt lat="43.64854" lon="7.08167">
        <ele>67.800003051758</ele>
        <time>2014-09-03T10:39:34.000Z</time>
      </trkpt>
      <trkpt lat="43.64872" lon="7.08151">
        <ele>62.799999237061</ele>
        <time>2014-09-03T10:39:37.000Z</time>
      </trkpt>
      <trkpt lat="43.64888" lon="7.08145">
        <ele>60.400001525879</ele>
        <time>2014-09-03T10:39:40.000Z</time>
      </trkpt>
      <trkpt lat="43.64898" lon="7.08143">
        <ele>59</ele>
        <time>2014-09-03T10:39:42.000Z</time>
      </trkpt>
      <trkpt lat="43.64909" lon="7.08142">
        <ele>57.799999237061</ele>
        <time>2014-09-03T10:39:44.000Z</time>
      </trkpt>
      <trkpt lat="43.64922" lon="7.08144">
        <ele>56.799999237061</ele>
        <time>2014-09-03T10:39:47.000Z</time>
      </trkpt>
      <trkpt lat="43.64936" lon="7.08153">
        <ele>56.799999237061</ele>
        <time>2014-09-03T10:39:52.000Z</time>
      </trkpt>
      <trkpt lat="43.64946" lon="7.08166">
        <ele>57</ele>
        <time>2014-09-03T10:39:56.000Z</time>
      </trkpt>
      <trkpt lat="43.64959" lon="7.08182">
        <ele>56.799999237061</ele>
        <time>2014-09-03T10:40:00.000Z</time>
      </trkpt>
      <trkpt lat="43.6497" lon="7.08205">
        <ele>58.799999237061</ele>
        <time>2014-09-03T10:40:05.000Z</time>
      </trkpt>
      <trkpt lat="43.64978" lon="7.08228">
        <ele>62.200000762939</ele>
        <time>2014-09-03T10:40:10.000Z</time>
      </trkpt>
      <trkpt lat="43.64987" lon="7.08251">
        <ele>64.199996948242</ele>
        <time>2014-09-03T10:40:15.000Z</time>
      </trkpt>
      <trkpt lat="43.64998" lon="7.08272">
        <ele>63.599998474121</ele>
        <time>2014-09-03T10:40:20.000Z</time>
      </trkpt>
      <trkpt lat="43.65013" lon="7.08291">
        <ele>62.200000762939</ele>
        <time>2014-09-03T10:40:25.000Z</time>
      </trkpt>
      <trkpt lat="43.65025" lon="7.08307">
        <ele>61</ele>
        <time>2014-09-03T10:40:30.000Z</time>
      </trkpt>
      <trkpt lat="43.65038" lon="7.0832">
        <ele>59.799999237061</ele>
        <time>2014-09-03T10:40:34.000Z</time>
      </trkpt>
      <trkpt lat="43.65042" lon="7.08326">
        <ele>59.599998474121</ele>
        <time>2014-09-03T10:40:35.000Z</time>
      </trkpt>
      <trkpt lat="43.65054" lon="7.08343">
        <ele>58.799999237061</ele>
        <time>2014-09-03T10:40:38.000Z</time>
      </trkpt>
      <trkpt lat="43.65062" lon="7.08351">
        <ele>58</ele>
        <time>2014-09-03T10:40:42.000Z</time>
      </trkpt>
      <trkpt lat="43.65072" lon="7.08362">
        <ele>57.400001525879</ele>
        <time>2014-09-03T10:40:48.000Z</time>
      </trkpt>
      <trkpt lat="43.65088" lon="7.08381">
        <ele>56</ele>
        <time>2014-09-03T10:40:55.000Z</time>
      </trkpt>
      <trkpt lat="43.65102" lon="7.08393">
        <ele>54.400001525879</ele>
        <time>2014-09-03T10:41:00.000Z</time>
      </trkpt>
      <trkpt lat="43.65118" lon="7.08411">
        <ele>54.599998474121</ele>
        <time>2014-09-03T10:41:05.000Z</time>
      </trkpt>
      <trkpt lat="43.65136" lon="7.08428">
        <ele>54.599998474121</ele>
        <time>2014-09-03T10:41:10.000Z</time>
      </trkpt>
      <trkpt lat="43.65143" lon="7.08435">
        <ele>54.599998474121</ele>
        <time>2014-09-03T10:41:12.000Z</time>
      </trkpt>
      <trkpt lat="43.65156" lon="7.08446">
        <ele>54.400001525879</ele>
        <time>2014-09-03T10:41:16.000Z</time>
      </trkpt>
      <trkpt lat="43.65167" lon="7.08457">
        <ele>54.200000762939</ele>
        <time>2014-09-03T10:41:20.000Z</time>
      </trkpt>
      <trkpt lat="43.65187" lon="7.08476">
        <ele>54</ele>
        <time>2014-09-03T10:41:27.000Z</time>
      </trkpt>
      <trkpt lat="43.65205" lon="7.08491">
        <ele>52.599998474121</ele>
        <time>2014-09-03T10:41:32.000Z</time>
      </trkpt>
      <trkpt lat="43.65221" lon="7.08507">
        <ele>51.599998474121</ele>
        <time>2014-09-03T10:41:37.000Z</time>
      </trkpt>
      <trkpt lat="43.65237" lon="7.08527">
        <ele>51</ele>
        <time>2014-09-03T10:41:42.000Z</time>
      </trkpt>
      <trkpt lat="43.65252" lon="7.08545">
        <ele>50.400001525879</ele>
        <time>2014-09-03T10:41:47.000Z</time>
      </trkpt>
      <trkpt lat="43.65258" lon="7.08552">
        <ele>50.200000762939</ele>
        <time>2014-09-03T10:41:49.000Z</time>
      </trkpt>
      <trkpt lat="43.65278" lon="7.08569">
        <ele>49.200000762939</ele>
        <time>2014-09-03T10:41:55.000Z</time>
      </trkpt>
      <trkpt lat="43.65295" lon="7.08585">
        <ele>48.200000762939</ele>
        <time>2014-09-03T10:42:00.000Z</time>
      </trkpt>
      <trkpt lat="43.65312" lon="7.08599">
        <ele>46.599998474121</ele>
        <time>2014-09-03T10:42:05.000Z</time>
      </trkpt>
      <trkpt lat="43.6533" lon="7.08614">
        <ele>45</ele>
        <time>2014-09-03T10:42:10.000Z</time>
      </trkpt>
      <trkpt lat="43.65346" lon="7.08629">
        <ele>43.599998474121</ele>
        <time>2014-09-03T10:42:15.000Z</time>
      </trkpt>
      <trkpt lat="43.65363" lon="7.08645">
        <ele>42.799999237061</ele>
        <time>2014-09-03T10:42:20.000Z</time>
      </trkpt>
      <trkpt lat="43.65373" lon="7.08653">
        <ele>42.400001525879</ele>
        <time>2014-09-03T10:42:23.000Z</time>
      </trkpt>
      <trkpt lat="43.65379" lon="7.08661">
        <ele>42</ele>
        <time>2014-09-03T10:42:25.000Z</time>
      </trkpt>
      <trkpt lat="43.65387" lon="7.0869">
        <ele>41.200000762939</ele>
        <time>2014-09-03T10:42:29.000Z</time>
      </trkpt>
      <trkpt lat="43.65383" lon="7.08711">
        <ele>40.400001525879</ele>
        <time>2014-09-03T10:42:32.000Z</time>
      </trkpt>
      <trkpt lat="43.65372" lon="7.08744">
        <ele>39.200000762939</ele>
        <time>2014-09-03T10:42:38.000Z</time>
      </trkpt>
      <trkpt lat="43.65362" lon="7.08768">
        <ele>39</ele>
        <time>2014-09-03T10:42:43.000Z</time>
      </trkpt>
      <trkpt lat="43.6536" lon="7.08773">
        <ele>39</ele>
        <time>2014-09-03T10:42:44.000Z</time>
      </trkpt>
      <trkpt lat="43.65345" lon="7.08782">
        <ele>39.599998474121</ele>
        <time>2014-09-03T10:42:49.000Z</time>
      </trkpt>
      <trkpt lat="43.65338" lon="7.08775">
        <ele>40.200000762939</ele>
        <time>2014-09-03T10:42:52.000Z</time>
      </trkpt>
      <trkpt lat="43.65322" lon="7.08764">
        <ele>41.599998474121</ele>
        <time>2014-09-03T10:42:59.000Z</time>
      </trkpt>
      <trkpt lat="43.65303" lon="7.08753">
        <ele>43.400001525879</ele>
        <time>2014-09-03T10:43:06.000Z</time>
      </trkpt>
      <trkpt lat="43.65288" lon="7.08739">
        <ele>45</ele>
        <time>2014-09-03T10:43:12.000Z</time>
      </trkpt>
      <trkpt lat="43.65273" lon="7.08721">
        <ele>47.599998474121</ele>
        <time>2014-09-03T10:43:19.000Z</time>
      </trkpt>
      <trkpt lat="43.65268" lon="7.08719">
        <ele>48.200000762939</ele>
        <time>2014-09-03T10:43:21.000Z</time>
      </trkpt>
      <trkpt lat="43.65255" lon="7.08733">
        <ele>49</ele>
        <time>2014-09-03T10:43:28.000Z</time>
      </trkpt>
      <trkpt lat="43.65245" lon="7.08745">
        <ele>48.599998474121</ele>
        <time>2014-09-03T10:43:33.000Z</time>
      </trkpt>
      <trkpt lat="43.65243" lon="7.08746">
        <ele>48.599998474121</ele>
        <time>2014-09-03T10:43:34.000Z</time>
      </trkpt>
      <trkpt lat="43.65233" lon="7.08745">
        <ele>49.799999237061</ele>
        <time>2014-09-03T10:43:38.000Z</time>
      </trkpt>
      <trkpt lat="43.65231" lon="7.08744">
        <ele>50.200000762939</ele>
        <time>2014-09-03T10:43:39.000Z</time>
      </trkpt>
      <trkpt lat="43.65214" lon="7.08733">
        <ele>53.400001525879</ele>
        <time>2014-09-03T10:43:47.000Z</time>
      </trkpt>
      <trkpt lat="43.65196" lon="7.08723">
        <ele>56.599998474121</ele>
        <time>2014-09-03T10:43:56.000Z</time>
      </trkpt>
      <trkpt lat="43.65179" lon="7.08713">
        <ele>60</ele>
        <time>2014-09-03T10:44:05.000Z</time>
      </trkpt>
      <trkpt lat="43.65163" lon="7.08709">
        <ele>62.599998474121</ele>
        <time>2014-09-03T10:44:13.000Z</time>
      </trkpt>
      <trkpt lat="43.65146" lon="7.08711">
        <ele>65</ele>
        <time>2014-09-03T10:44:21.000Z</time>
      </trkpt>
      <trkpt lat="43.65132" lon="7.08715">
        <ele>67.199996948242</ele>
        <time>2014-09-03T10:44:28.000Z</time>
      </trkpt>
      <trkpt lat="43.65121" lon="7.08723">
        <ele>68.800003051758</ele>
        <time>2014-09-03T10:44:35.000Z</time>
      </trkpt>
      <trkpt lat="43.65114" lon="7.08734">
        <ele>69.400001525879</ele>
        <time>2014-09-03T10:44:41.000Z</time>
      </trkpt>
      <trkpt lat="43.65108" lon="7.08746">
        <ele>69.800003051758</ele>
        <time>2014-09-03T10:44:47.000Z</time>
      </trkpt>
      <trkpt lat="43.65101" lon="7.08762">
        <ele>71.599998474121</ele>
        <time>2014-09-03T10:44:54.000Z</time>
      </trkpt>
      <trkpt lat="43.6509" lon="7.08784">
        <ele>74.599998474121</ele>
        <time>2014-09-03T10:45:03.000Z</time>
      </trkpt>
      <trkpt lat="43.65083" lon="7.08796">
        <ele>76.400001525879</ele>
        <time>2014-09-03T10:45:08.000Z</time>
      </trkpt>
      <trkpt lat="43.65076" lon="7.08795">
        <ele>78.199996948242</ele>
        <time>2014-09-03T10:45:12.000Z</time>
      </trkpt>
      <trkpt lat="43.6507" lon="7.08777">
        <ele>79.599998474121</ele>
        <time>2014-09-03T10:45:21.000Z</time>
      </trkpt>
      <trkpt lat="43.65065" lon="7.08762">
        <ele>80.599998474121</ele>
        <time>2014-09-03T10:45:28.000Z</time>
      </trkpt>
      <trkpt lat="43.65059" lon="7.08748">
        <ele>82</ele>
        <time>2014-09-03T10:45:35.000Z</time>
      </trkpt>
      <trkpt lat="43.65058" lon="7.08733">
        <ele>82.199996948242</ele>
        <time>2014-09-03T10:45:41.000Z</time>
      </trkpt>
      <trkpt lat="43.65057" lon="7.08718">
        <ele>82.199996948242</ele>
        <time>2014-09-03T10:45:47.000Z</time>
      </trkpt>
      <trkpt lat="43.6506" lon="7.08701">
        <ele>81.400001525879</ele>
        <time>2014-09-03T10:45:54.000Z</time>
      </trkpt>
      <trkpt lat="43.65062" lon="7.08682">
        <ele>82.199996948242</ele>
        <time>2014-09-03T10:46:01.000Z</time>
      </trkpt>
      <trkpt lat="43.65059" lon="7.08667">
        <ele>83.800003051758</ele>
        <time>2014-09-03T10:46:06.000Z</time>
      </trkpt>
      <trkpt lat="43.65054" lon="7.08645">
        <ele>84.400001525879</ele>
        <time>2014-09-03T10:46:13.000Z</time>
      </trkpt>
      <trkpt lat="43.65045" lon="7.08622">
        <ele>85</ele>
        <time>2014-09-03T10:46:22.000Z</time>
      </trkpt>
      <trkpt lat="43.65036" lon="7.08618">
        <ele>86.199996948242</ele>
        <time>2014-09-03T10:46:28.000Z</time>
      </trkpt>
      <trkpt lat="43.65029" lon="7.08624">
        <ele>87.599998474121</ele>
        <time>2014-09-03T10:46:34.000Z</time>
      </trkpt>
      <trkpt lat="43.65024" lon="7.08628">
        <ele>88.599998474121</ele>
        <time>2014-09-03T10:46:38.000Z</time>
      </trkpt>
      <trkpt lat="43.65017" lon="7.08635">
        <ele>90.199996948242</ele>
        <time>2014-09-03T10:46:43.000Z</time>
      </trkpt>
      <trkpt lat="43.65009" lon="7.08643">
        <ele>92</ele>
        <time>2014-09-03T10:46:50.000Z</time>
      </trkpt>
      <trkpt lat="43.65002" lon="7.08652">
        <ele>93.800003051758</ele>
        <time>2014-09-03T10:46:56.000Z</time>
      </trkpt>
      <trkpt lat="43.64993" lon="7.08671">
        <ele>96.400001525879</ele>
        <time>2014-09-03T10:47:03.000Z</time>
      </trkpt>
      <trkpt lat="43.64988" lon="7.08689">
        <ele>97.599998474121</ele>
        <time>2014-09-03T10:47:10.000Z</time>
      </trkpt>
      <trkpt lat="43.64986" lon="7.08706">
        <ele>98.199996948242</ele>
        <time>2014-09-03T10:47:16.000Z</time>
      </trkpt>
      <trkpt lat="43.64984" lon="7.08721">
        <ele>99.400001525879</ele>
        <time>2014-09-03T10:47:22.000Z</time>
      </trkpt>
      <trkpt lat="43.64979" lon="7.08739">
        <ele>101</ele>
        <time>2014-09-03T10:47:29.000Z</time>
      </trkpt>
      <trkpt lat="43.64972" lon="7.08759">
        <ele>102.59999847412</ele>
        <time>2014-09-03T10:47:37.000Z</time>
      </trkpt>
      <trkpt lat="43.64964" lon="7.0878">
        <ele>104.19999694824</ele>
        <time>2014-09-03T10:47:46.000Z</time>
      </trkpt>
      <trkpt lat="43.6496" lon="7.08791">
        <ele>105.19999694824</ele>
        <time>2014-09-03T10:47:52.000Z</time>
      </trkpt>
      <trkpt lat="43.64955" lon="7.08802">
        <ele>106.40000152588</ele>
        <time>2014-09-03T10:48:00.000Z</time>
      </trkpt>
      <trkpt lat="43.64953" lon="7.08814">
        <ele>107</ele>
        <time>2014-09-03T10:48:06.000Z</time>
      </trkpt>
      <trkpt lat="43.64948" lon="7.08813">
        <ele>108</ele>
        <time>2014-09-03T10:48:11.000Z</time>
      </trkpt>
      <trkpt lat="43.64948" lon="7.08812">
        <ele>108</ele>
        <time>2014-09-03T10:48:12.000Z</time>
      </trkpt>
      <trkpt lat="43.6495" lon="7.08811">
        <ele>107.59999847412</ele>
        <time>2014-09-03T10:48:16.000Z</time>
      </trkpt>
      <trkpt lat="43.64949" lon="7.08818">
        <ele>107.80000305176</ele>
        <time>2014-09-03T10:48:20.000Z</time>
      </trkpt>
      <trkpt lat="43.6494" lon="7.08831">
        <ele>110.40000152588</ele>
        <time>2014-09-03T10:48:27.000Z</time>
      </trkpt>
      <trkpt lat="43.6493" lon="7.08834">
        <ele>112.59999847412</ele>
        <time>2014-09-03T10:48:33.000Z</time>
      </trkpt>
      <trkpt lat="43.6492" lon="7.08834">
        <ele>115</ele>
        <time>2014-09-03T10:48:39.000Z</time>
      </trkpt>
      <trkpt lat="43.6491" lon="7.08826">
        <ele>116.59999847412</ele>
        <time>2014-09-03T10:48:44.000Z</time>
      </trkpt>
      <trkpt lat="43.64909" lon="7.08823">
        <ele>116.80000305176</ele>
        <time>2014-09-03T10:48:45.000Z</time>
      </trkpt>
      <trkpt lat="43.64905" lon="7.08812">
        <ele>118</ele>
        <time>2014-09-03T10:48:51.000Z</time>
      </trkpt>
      <trkpt lat="43.64899" lon="7.08801">
        <ele>119.80000305176</ele>
        <time>2014-09-03T10:48:57.000Z</time>
      </trkpt>
      <trkpt lat="43.64893" lon="7.0879">
        <ele>121.59999847412</ele>
        <time>2014-09-03T10:49:03.000Z</time>
      </trkpt>
      <trkpt lat="43.64887" lon="7.08779">
        <ele>123.40000152588</ele>
        <time>2014-09-03T10:49:09.000Z</time>
      </trkpt>
      <trkpt lat="43.64879" lon="7.08767">
        <ele>125.19999694824</ele>
        <time>2014-09-03T10:49:16.000Z</time>
      </trkpt>
      <trkpt lat="43.64872" lon="7.08756">
        <ele>127</ele>
        <time>2014-09-03T10:49:23.000Z</time>
      </trkpt>
      <trkpt lat="43.64865" lon="7.08743">
        <ele>129</ele>
        <time>2014-09-03T10:49:32.000Z</time>
      </trkpt>
      <trkpt lat="43.64858" lon="7.08729">
        <ele>129.80000305176</ele>
        <time>2014-09-03T10:49:39.000Z</time>
      </trkpt>
      <trkpt lat="43.64848" lon="7.08711">
        <ele>131.80000305176</ele>
        <time>2014-09-03T10:49:49.000Z</time>
      </trkpt>
      <trkpt lat="43.64839" lon="7.087">
        <ele>134</ele>
        <time>2014-09-03T10:49:57.000Z</time>
      </trkpt>
      <trkpt lat="43.64831" lon="7.08691">
        <ele>136</ele>
        <time>2014-09-03T10:50:04.000Z</time>
      </trkpt>
      <trkpt lat="43.64828" lon="7.08688">
        <ele>136.80000305176</ele>
        <time>2014-09-03T10:50:06.000Z</time>
      </trkpt>
      <trkpt lat="43.64817" lon="7.08673">
        <ele>139.39999389648</ele>
        <time>2014-09-03T10:50:16.000Z</time>
      </trkpt>
      <trkpt lat="43.64815" lon="7.08667">
        <ele>139.60000610352</ele>
        <time>2014-09-03T10:50:19.000Z</time>
      </trkpt>
      <trkpt lat="43.64812" lon="7.0866">
        <ele>140.19999694824</ele>
        <time>2014-09-03T10:50:23.000Z</time>
      </trkpt>
      <trkpt lat="43.64805" lon="7.0864">
        <ele>142.80000305176</ele>
        <time>2014-09-03T10:50:33.000Z</time>
      </trkpt>
      <trkpt lat="43.648" lon="7.08624">
        <ele>144.60000610352</ele>
        <time>2014-09-03T10:50:40.000Z</time>
      </trkpt>
      <trkpt lat="43.64796" lon="7.08603">
        <ele>146.19999694824</ele>
        <time>2014-09-03T10:50:49.000Z</time>
      </trkpt>
      <trkpt lat="43.64792" lon="7.08588">
        <ele>147</ele>
        <time>2014-09-03T10:50:55.000Z</time>
      </trkpt>
      <trkpt lat="43.6479" lon="7.08576">
        <ele>146.80000305176</ele>
        <time>2014-09-03T10:50:59.000Z</time>
      </trkpt>
      <trkpt lat="43.64783" lon="7.08555">
        <ele>146.19999694824</ele>
        <time>2014-09-03T10:51:06.000Z</time>
      </trkpt>
      <trkpt lat="43.64772" lon="7.08534">
        <ele>147.39999389648</ele>
        <time>2014-09-03T10:51:13.000Z</time>
      </trkpt>
      <trkpt lat="43.64758" lon="7.08519">
        <ele>149.80000305176</ele>
        <time>2014-09-03T10:51:20.000Z</time>
      </trkpt>
      <trkpt lat="43.64747" lon="7.08508">
        <ele>152</ele>
        <time>2014-09-03T10:51:26.000Z</time>
      </trkpt>
      <trkpt lat="43.64745" lon="7.08502">
        <ele>151.39999389648</ele>
        <time>2014-09-03T10:51:31.000Z</time>
      </trkpt>
      <trkpt lat="43.64743" lon="7.085">
        <ele>151.80000305176</ele>
        <time>2014-09-03T10:51:51.000Z</time>
      </trkpt>
      <trkpt lat="43.64737" lon="7.08492">
        <ele>152.60000610352</ele>
        <time>2014-09-03T10:51:58.000Z</time>
      </trkpt>
      <trkpt lat="43.64731" lon="7.08483">
        <ele>152.39999389648</ele>
        <time>2014-09-03T10:52:08.000Z</time>
      </trkpt>
      <trkpt lat="43.64724" lon="7.08469">
        <ele>151.60000610352</ele>
        <time>2014-09-03T10:52:13.000Z</time>
      </trkpt>
      <trkpt lat="43.64716" lon="7.08444">
        <ele>148.60000610352</ele>
        <time>2014-09-03T10:52:18.000Z</time>
      </trkpt>
      <trkpt lat="43.64714" lon="7.08423">
        <ele>145.39999389648</ele>
        <time>2014-09-03T10:52:22.000Z</time>
      </trkpt>
      <trkpt lat="43.64719" lon="7.08398">
        <ele>139.19999694824</ele>
        <time>2014-09-03T10:52:27.000Z</time>
      </trkpt>
      <trkpt lat="43.64715" lon="7.0838">
        <ele>135.80000305176</ele>
        <time>2014-09-03T10:52:31.000Z</time>
      </trkpt>
      <trkpt lat="43.647" lon="7.08362">
        <ele>135.19999694824</ele>
        <time>2014-09-03T10:52:36.000Z</time>
      </trkpt>
      <trkpt lat="43.64686" lon="7.08348">
        <ele>135.19999694824</ele>
        <time>2014-09-03T10:52:40.000Z</time>
      </trkpt>
      <trkpt lat="43.64666" lon="7.0834">
        <ele>133.80000305176</ele>
        <time>2014-09-03T10:52:45.000Z</time>
      </trkpt>
      <trkpt lat="43.64642" lon="7.08341">
        <ele>134.60000610352</ele>
        <time>2014-09-03T10:52:51.000Z</time>
      </trkpt>
      <trkpt lat="43.6462" lon="7.08342">
        <ele>135.39999389648</ele>
        <time>2014-09-03T10:52:56.000Z</time>
      </trkpt>
      <trkpt lat="43.64599" lon="7.08343">
        <ele>136.80000305176</ele>
        <time>2014-09-03T10:53:01.000Z</time>
      </trkpt>
      <trkpt lat="43.64579" lon="7.08343">
        <ele>139</ele>
        <time>2014-09-03T10:53:06.000Z</time>
      </trkpt>
      <trkpt lat="43.64557" lon="7.08344">
        <ele>141.39999389648</ele>
        <time>2014-09-03T10:53:11.000Z</time>
      </trkpt>
      <trkpt lat="43.64553" lon="7.08345">
        <ele>142</ele>
        <time>2014-09-03T10:53:12.000Z</time>
      </trkpt>
      <trkpt lat="43.6454" lon="7.08346">
        <ele>143.39999389648</ele>
        <time>2014-09-03T10:53:15.000Z</time>
      </trkpt>
      <trkpt lat="43.64516" lon="7.08341">
        <ele>144</ele>
        <time>2014-09-03T10:53:21.000Z</time>
      </trkpt>
      <trkpt lat="43.64507" lon="7.08337">
        <ele>144.39999389648</ele>
        <time>2014-09-03T10:53:23.000Z</time>
      </trkpt>
      <trkpt lat="43.64487" lon="7.08323">
        <ele>145</ele>
        <time>2014-09-03T10:53:28.000Z</time>
      </trkpt>
      <trkpt lat="43.64476" lon="7.08314">
        <ele>145.80000305176</ele>
        <time>2014-09-03T10:53:31.000Z</time>
      </trkpt>
      <trkpt lat="43.64463" lon="7.08306">
        <ele>147</ele>
        <time>2014-09-03T10:53:34.000Z</time>
      </trkpt>
      <trkpt lat="43.64439" lon="7.08292">
        <ele>149.19999694824</ele>
        <time>2014-09-03T10:53:40.000Z</time>
      </trkpt>
      <trkpt lat="43.64436" lon="7.08289">
        <ele>149.60000610352</ele>
        <time>2014-09-03T10:53:41.000Z</time>
      </trkpt>
      <trkpt lat="43.64424" lon="7.08282">
        <ele>150.60000610352</ele>
        <time>2014-09-03T10:53:44.000Z</time>
      </trkpt>
      <trkpt lat="43.64418" lon="7.08264">
        <ele>149.39999389648</ele>
        <time>2014-09-03T10:53:48.000Z</time>
      </trkpt>
      <trkpt lat="43.64422" lon="7.08255">
        <ele>147.60000610352</ele>
        <time>2014-09-03T10:53:50.000Z</time>
      </trkpt>
      <trkpt lat="43.64437" lon="7.08227">
        <ele>144.39999389648</ele>
        <time>2014-09-03T10:53:56.000Z</time>
      </trkpt>
      <trkpt lat="43.64439" lon="7.08222">
        <ele>144.19999694824</ele>
        <time>2014-09-03T10:53:57.000Z</time>
      </trkpt>
      <trkpt lat="43.64443" lon="7.08211">
        <ele>143.80000305176</ele>
        <time>2014-09-03T10:53:59.000Z</time>
      </trkpt>
      <trkpt lat="43.6445" lon="7.08176">
        <ele>143.80000305176</ele>
        <time>2014-09-03T10:54:05.000Z</time>
      </trkpt>
      <trkpt lat="43.64451" lon="7.0817">
        <ele>143.60000610352</ele>
        <time>2014-09-03T10:54:06.000Z</time>
      </trkpt>
      <trkpt lat="43.64457" lon="7.08144">
        <ele>141.80000305176</ele>
        <time>2014-09-03T10:54:10.000Z</time>
      </trkpt>
      <trkpt lat="43.64457" lon="7.08129">
        <ele>141.19999694824</ele>
        <time>2014-09-03T10:54:13.000Z</time>
      </trkpt>
      <trkpt lat="43.64452" lon="7.08109">
        <ele>141.80000305176</ele>
        <time>2014-09-03T10:54:18.000Z</time>
      </trkpt>
      <trkpt lat="43.64452" lon="7.08106">
        <ele>141.80000305176</ele>
        <time>2014-09-03T10:54:19.000Z</time>
      </trkpt>
      <trkpt lat="43.64452" lon="7.08089">
        <ele>141.39999389648</ele>
        <time>2014-09-03T10:54:25.000Z</time>
      </trkpt>
      <trkpt lat="43.64452" lon="7.08086">
        <ele>141.80000305176</ele>
        <time>2014-09-03T10:54:26.000Z</time>
      </trkpt>
      <trkpt lat="43.6445" lon="7.08078">
        <ele>142.60000610352</ele>
        <time>2014-09-03T10:54:31.000Z</time>
      </trkpt>
      <trkpt lat="43.64447" lon="7.08077">
        <ele>143</ele>
        <time>2014-09-03T10:55:07.000Z</time>
      </trkpt>
      <trkpt lat="43.64454" lon="7.0808">
        <ele>141.80000305176</ele>
        <time>2014-09-03T10:56:37.000Z</time>
      </trkpt>
      <trkpt lat="43.64465" lon="7.08081">
        <ele>139.80000305176</ele>
        <time>2014-09-03T10:56:40.000Z</time>
      </trkpt>
      <trkpt lat="43.6447" lon="7.08096">
        <ele>138</ele>
        <time>2014-09-03T10:56:44.000Z</time>
      </trkpt>
      <trkpt lat="43.64477" lon="7.08104">
        <ele>136.39999389648</ele>
        <time>2014-09-03T10:56:47.000Z</time>
      </trkpt>
      <trkpt lat="43.64487" lon="7.08117">
        <ele>134</ele>
        <time>2014-09-03T10:56:52.000Z</time>
      </trkpt>
      <trkpt lat="43.64488" lon="7.0812">
        <ele>133.60000610352</ele>
        <time>2014-09-03T10:56:53.000Z</time>
      </trkpt>
      <trkpt lat="43.64494" lon="7.0813">
        <ele>132</ele>
        <time>2014-09-03T10:56:57.000Z</time>
      </trkpt>
      <trkpt lat="43.64502" lon="7.08142">
        <ele>129.80000305176</ele>
        <time>2014-09-03T10:57:01.000Z</time>
      </trkpt>
      <trkpt lat="43.64505" lon="7.08149">
        <ele>129.39999389648</ele>
        <time>2014-09-03T10:57:03.000Z</time>
      </trkpt>
      <trkpt lat="43.64517" lon="7.08158">
        <ele>126.59999847412</ele>
        <time>2014-09-03T10:57:09.000Z</time>
      </trkpt>
      <trkpt lat="43.64519" lon="7.0816">
        <ele>126</ele>
        <time>2014-09-03T10:57:10.000Z</time>
      </trkpt>
      <trkpt lat="43.64523" lon="7.08156">
        <ele>125.40000152588</ele>
        <time>2014-09-03T10:57:14.000Z</time>
      </trkpt>
      <trkpt lat="43.64522" lon="7.08154">
        <ele>125.59999847412</ele>
        <time>2014-09-03T10:57:47.000Z</time>
      </trkpt>
      <trkpt lat="43.64524" lon="7.08138">
        <ele>126.19999694824</ele>
        <time>2014-09-03T10:57:52.000Z</time>
      </trkpt>
      <trkpt lat="43.64525" lon="7.08132">
        <ele>126.40000152588</ele>
        <time>2014-09-03T10:57:53.000Z</time>
      </trkpt>
      <trkpt lat="43.64524" lon="7.08112">
        <ele>127.80000305176</ele>
        <time>2014-09-03T10:57:56.000Z</time>
      </trkpt>
      <trkpt lat="43.64534" lon="7.08101">
        <ele>126.19999694824</ele>
        <time>2014-09-03T10:58:00.000Z</time>
      </trkpt>
      <trkpt lat="43.64541" lon="7.0811">
        <ele>124.19999694824</ele>
        <time>2014-09-03T10:58:03.000Z</time>
      </trkpt>
      <trkpt lat="43.64543" lon="7.08114">
        <ele>123.59999847412</ele>
        <time>2014-09-03T10:58:04.000Z</time>
      </trkpt>
      <trkpt lat="43.64548" lon="7.08137">
        <ele>121</ele>
        <time>2014-09-03T10:58:09.000Z</time>
      </trkpt>
      <trkpt lat="43.6455" lon="7.08141">
        <ele>120.40000152588</ele>
        <time>2014-09-03T10:58:10.000Z</time>
      </trkpt>
      <trkpt lat="43.64566" lon="7.08141">
        <ele>117</ele>
        <time>2014-09-03T10:58:15.000Z</time>
      </trkpt>
      <trkpt lat="43.64579" lon="7.08128">
        <ele>114.59999847412</ele>
        <time>2014-09-03T10:58:19.000Z</time>
      </trkpt>
      <trkpt lat="43.64583" lon="7.08125">
        <ele>113.59999847412</ele>
        <time>2014-09-03T10:58:20.000Z</time>
      </trkpt>
      <trkpt lat="43.64598" lon="7.08127">
        <ele>109.59999847412</ele>
        <time>2014-09-03T10:58:23.000Z</time>
      </trkpt>
      <trkpt lat="43.64601" lon="7.0813">
        <ele>108.80000305176</ele>
        <time>2014-09-03T10:58:24.000Z</time>
      </trkpt>
      <trkpt lat="43.64606" lon="7.08137">
        <ele>107.80000305176</ele>
        <time>2014-09-03T10:58:27.000Z</time>
      </trkpt>
      <trkpt lat="43.6461" lon="7.0814">
        <ele>107.40000152588</ele>
        <time>2014-09-03T10:58:31.000Z</time>
      </trkpt>
      <trkpt lat="43.64611" lon="7.08139">
        <ele>107.19999694824</ele>
        <time>2014-09-03T10:58:42.000Z</time>
      </trkpt>
      <trkpt lat="43.64619" lon="7.08134">
        <ele>106.40000152588</ele>
        <time>2014-09-03T10:58:47.000Z</time>
      </trkpt>
      <trkpt lat="43.6462" lon="7.08132">
        <ele>106.19999694824</ele>
        <time>2014-09-03T10:58:48.000Z</time>
      </trkpt>
      <trkpt lat="43.64621" lon="7.08127">
        <ele>106.19999694824</ele>
        <time>2014-09-03T10:58:51.000Z</time>
      </trkpt>
      <trkpt lat="43.64622" lon="7.08121">
        <ele>106.19999694824</ele>
        <time>2014-09-03T10:59:16.000Z</time>
      </trkpt>
      <trkpt lat="43.64622" lon="7.0812">
        <ele>106.19999694824</ele>
        <time>2014-09-03T10:59:23.000Z</time>
      </trkpt>
      <trkpt lat="43.64627" lon="7.0811">
        <ele>105.80000305176</ele>
        <time>2014-09-03T10:59:29.000Z</time>
      </trkpt>
      <trkpt lat="43.64627" lon="7.08109">
        <ele>105.59999847412</ele>
        <time>2014-09-03T10:59:30.000Z</time>
      </trkpt>
      <trkpt lat="43.64631" lon="7.08102">
        <ele>104.80000305176</ele>
        <time>2014-09-03T10:59:39.000Z</time>
      </trkpt>
      <trkpt lat="43.64632" lon="7.08098">
        <ele>103.59999847412</ele>
        <time>2014-09-03T10:59:43.000Z</time>
      </trkpt>
      <trkpt lat="43.64633" lon="7.08099">
        <ele>103.59999847412</ele>
        <time>2014-09-03T10:59:52.000Z</time>
      </trkpt>
      <trkpt lat="43.64636" lon="7.081">
        <ele>102.80000305176</ele>
        <time>2014-09-03T10:59:59.000Z</time>
      </trkpt>
      <trkpt lat="43.64638" lon="7.08102">
        <ele>102.40000152588</ele>
        <time>2014-09-03T11:00:03.000Z</time>
      </trkpt>
      <trkpt lat="43.64651" lon="7.08094">
        <ele>97.199996948242</ele>
        <time>2014-09-03T11:00:09.000Z</time>
      </trkpt>
      <trkpt lat="43.64655" lon="7.0808">
        <ele>94</ele>
        <time>2014-09-03T11:00:12.000Z</time>
      </trkpt>
      <trkpt lat="43.64657" lon="7.08073">
        <ele>92.400001525879</ele>
        <time>2014-09-03T11:00:14.000Z</time>
      </trkpt>
      <trkpt lat="43.64665" lon="7.08054">
        <ele>88.199996948242</ele>
        <time>2014-09-03T11:00:19.000Z</time>
      </trkpt>
      <trkpt lat="43.6467" lon="7.08041">
        <ele>85.800003051758</ele>
        <time>2014-09-03T11:00:23.000Z</time>
      </trkpt>
      <trkpt lat="43.64679" lon="7.08014">
        <ele>80.800003051758</ele>
        <time>2014-09-03T11:00:28.000Z</time>
      </trkpt>
      <trkpt lat="43.64692" lon="7.08004">
        <ele>77</ele>
        <time>2014-09-03T11:00:31.000Z</time>
      </trkpt>
      <trkpt lat="43.64707" lon="7.07994">
        <ele>74.400001525879</ele>
        <time>2014-09-03T11:00:35.000Z</time>
      </trkpt>
      <trkpt lat="43.64715" lon="7.08">
        <ele>73.800003051758</ele>
        <time>2014-09-03T11:00:39.000Z</time>
      </trkpt>
      <trkpt lat="43.64717" lon="7.08002">
        <ele>73.800003051758</ele>
        <time>2014-09-03T11:00:40.000Z</time>
      </trkpt>
      <trkpt lat="43.64721" lon="7.08005">
        <ele>73.400001525879</ele>
        <time>2014-09-03T11:00:45.000Z</time>
      </trkpt>
      <trkpt lat="43.64726" lon="7.08003">
        <ele>72.800003051758</ele>
        <time>2014-09-03T11:01:09.000Z</time>
      </trkpt>
      <trkpt lat="43.64733" lon="7.08003">
        <ele>71.800003051758</ele>
        <time>2014-09-03T11:01:13.000Z</time>
      </trkpt>
      <trkpt lat="43.64743" lon="7.08005">
        <ele>70.800003051758</ele>
        <time>2014-09-03T11:01:16.000Z</time>
      </trkpt>
      <trkpt lat="43.64758" lon="7.0801">
        <ele>69.199996948242</ele>
        <time>2014-09-03T11:01:19.000Z</time>
      </trkpt>
      <trkpt lat="43.64775" lon="7.08015">
        <ele>67</ele>
        <time>2014-09-03T11:01:22.000Z</time>
      </trkpt>
      <trkpt lat="43.6478" lon="7.08019">
        <ele>66.400001525879</ele>
        <time>2014-09-03T11:01:24.000Z</time>
      </trkpt>
      <trkpt lat="43.64783" lon="7.08023">
        <ele>66</ele>
        <time>2014-09-03T11:01:26.000Z</time>
      </trkpt>
      <trkpt lat="43.6479" lon="7.08038">
        <ele>65.400001525879</ele>
        <time>2014-09-03T11:01:30.000Z</time>
      </trkpt>
      <trkpt lat="43.64793" lon="7.0804">
        <ele>65</ele>
        <time>2014-09-03T11:01:33.000Z</time>
      </trkpt>
      <trkpt lat="43.64797" lon="7.08042">
        <ele>64.400001525879</ele>
        <time>2014-09-03T11:01:38.000Z</time>
      </trkpt>
      <trkpt lat="43.64799" lon="7.08044">
        <ele>64</ele>
        <time>2014-09-03T11:01:47.000Z</time>
      </trkpt>
      <trkpt lat="43.64797" lon="7.08051">
        <ele>64.800003051758</ele>
        <time>2014-09-03T11:02:21.000Z</time>
      </trkpt>
      <trkpt lat="43.64796" lon="7.08064">
        <ele>65.599998474121</ele>
        <time>2014-09-03T11:02:24.000Z</time>
      </trkpt>
      <trkpt lat="43.64803" lon="7.08084">
        <ele>65.800003051758</ele>
        <time>2014-09-03T11:02:29.000Z</time>
      </trkpt>
      <trkpt lat="43.64809" lon="7.08103">
        <ele>67</ele>
        <time>2014-09-03T11:02:33.000Z</time>
      </trkpt>
      <trkpt lat="43.6481" lon="7.08108">
        <ele>67.400001525879</ele>
        <time>2014-09-03T11:02:34.000Z</time>
      </trkpt>
      <trkpt lat="43.64816" lon="7.08127">
        <ele>68.800003051758</ele>
        <time>2014-09-03T11:02:38.000Z</time>
      </trkpt>
      <trkpt lat="43.64823" lon="7.08142">
        <ele>70.199996948242</ele>
        <time>2014-09-03T11:02:41.000Z</time>
      </trkpt>
      <trkpt lat="43.64846" lon="7.08154">
        <ele>66.599998474121</ele>
        <time>2014-09-03T11:02:45.000Z</time>
      </trkpt>
      <trkpt lat="43.64866" lon="7.0815">
        <ele>63.400001525879</ele>
        <time>2014-09-03T11:02:48.000Z</time>
      </trkpt>
      <trkpt lat="43.64881" lon="7.08135">
        <ele>60</ele>
        <time>2014-09-03T11:02:51.000Z</time>
      </trkpt>
      <trkpt lat="43.64892" lon="7.08132">
        <ele>58.400001525879</ele>
        <time>2014-09-03T11:02:53.000Z</time>
      </trkpt>
      <trkpt lat="43.64901" lon="7.08132">
        <ele>57.400001525879</ele>
        <time>2014-09-03T11:02:55.000Z</time>
      </trkpt>
      <trkpt lat="43.64921" lon="7.08132">
        <ele>56.599998474121</ele>
        <time>2014-09-03T11:02:59.000Z</time>
      </trkpt>
      <trkpt lat="43.64928" lon="7.08134">
        <ele>56.400001525879</ele>
        <time>2014-09-03T11:03:01.000Z</time>
      </trkpt>
      <trkpt lat="43.64935" lon="7.08138">
        <ele>56.400001525879</ele>
        <time>2014-09-03T11:03:03.000Z</time>
      </trkpt>
      <trkpt lat="43.64946" lon="7.08146">
        <ele>56.799999237061</ele>
        <time>2014-09-03T11:03:06.000Z</time>
      </trkpt>
      <trkpt lat="43.64956" lon="7.08157">
        <ele>57.200000762939</ele>
        <time>2014-09-03T11:03:09.000Z</time>
      </trkpt>
      <trkpt lat="43.64977" lon="7.08175">
        <ele>57.200000762939</ele>
        <time>2014-09-03T11:03:14.000Z</time>
      </trkpt>
      <trkpt lat="43.6498" lon="7.08179">
        <ele>57</ele>
        <time>2014-09-03T11:03:15.000Z</time>
      </trkpt>
      <trkpt lat="43.64982" lon="7.08184">
        <ele>57</ele>
        <time>2014-09-03T11:03:16.000Z</time>
      </trkpt>
      <trkpt lat="43.64994" lon="7.08208">
        <ele>56.599998474121</ele>
        <time>2014-09-03T11:03:21.000Z</time>
      </trkpt>
      <trkpt lat="43.64996" lon="7.08213">
        <ele>56.400001525879</ele>
        <time>2014-09-03T11:03:22.000Z</time>
      </trkpt>
      <trkpt lat="43.64998" lon="7.08219">
        <ele>56.400001525879</ele>
        <time>2014-09-03T11:03:23.000Z</time>
      </trkpt>
      <trkpt lat="43.65006" lon="7.08233">
        <ele>56.799999237061</ele>
        <time>2014-09-03T11:03:26.000Z</time>
      </trkpt>
      <trkpt lat="43.65009" lon="7.08243">
        <ele>58.200000762939</ele>
        <time>2014-09-03T11:03:28.000Z</time>
      </trkpt>
      <trkpt lat="43.65014" lon="7.08258">
        <ele>58.599998474121</ele>
        <time>2014-09-03T11:03:31.000Z</time>
      </trkpt>
      <trkpt lat="43.65025" lon="7.08275">
        <ele>58</ele>
        <time>2014-09-03T11:03:35.000Z</time>
      </trkpt>
      <trkpt lat="43.65029" lon="7.08283">
        <ele>57.799999237061</ele>
        <time>2014-09-03T11:03:37.000Z</time>
      </trkpt>
      <trkpt lat="43.65036" lon="7.08296">
        <ele>57.799999237061</ele>
        <time>2014-09-03T11:03:41.000Z</time>
      </trkpt>
      <trkpt lat="43.65046" lon="7.08305">
        <ele>56.799999237061</ele>
        <time>2014-09-03T11:03:43.000Z</time>
      </trkpt>
      <trkpt lat="43.65051" lon="7.08312">
        <ele>56.400001525879</ele>
        <time>2014-09-03T11:03:44.000Z</time>
      </trkpt>
      <trkpt lat="43.6507" lon="7.08333">
        <ele>54.799999237061</ele>
        <time>2014-09-03T11:03:47.000Z</time>
      </trkpt>
      <trkpt lat="43.65076" lon="7.08341">
        <ele>54.400001525879</ele>
        <time>2014-09-03T11:03:48.000Z</time>
      </trkpt>
      <trkpt lat="43.65091" lon="7.08361">
        <ele>53.599998474121</ele>
        <time>2014-09-03T11:03:51.000Z</time>
      </trkpt>
      <trkpt lat="43.65104" lon="7.0838">
        <ele>53</ele>
        <time>2014-09-03T11:03:54.000Z</time>
      </trkpt>
      <trkpt lat="43.65109" lon="7.08385">
        <ele>53</ele>
        <time>2014-09-03T11:03:55.000Z</time>
      </trkpt>
      <trkpt lat="43.65127" lon="7.08403">
        <ele>53</ele>
        <time>2014-09-03T11:03:59.000Z</time>
      </trkpt>
      <trkpt lat="43.65143" lon="7.08418">
        <ele>53</ele>
        <time>2014-09-03T11:04:03.000Z</time>
      </trkpt>
      <trkpt lat="43.65159" lon="7.08434">
        <ele>53</ele>
        <time>2014-09-03T11:04:07.000Z</time>
      </trkpt>
      <trkpt lat="43.65163" lon="7.08437">
        <ele>52.799999237061</ele>
        <time>2014-09-03T11:04:08.000Z</time>
      </trkpt>
      <trkpt lat="43.65183" lon="7.08457">
        <ele>52.799999237061</ele>
        <time>2014-09-03T11:04:13.000Z</time>
      </trkpt>
      <trkpt lat="43.65187" lon="7.08461">
        <ele>52.799999237061</ele>
        <time>2014-09-03T11:04:14.000Z</time>
      </trkpt>
      <trkpt lat="43.65194" lon="7.08468">
        <ele>52.200000762939</ele>
        <time>2014-09-03T11:04:16.000Z</time>
      </trkpt>
      <trkpt lat="43.6521" lon="7.08483">
        <ele>51</ele>
        <time>2014-09-03T11:04:20.000Z</time>
      </trkpt>
      <trkpt lat="43.65224" lon="7.085">
        <ele>50.200000762939</ele>
        <time>2014-09-03T11:04:24.000Z</time>
      </trkpt>
      <trkpt lat="43.65235" lon="7.0851">
        <ele>49.599998474121</ele>
        <time>2014-09-03T11:04:27.000Z</time>
      </trkpt>
      <trkpt lat="43.6525" lon="7.0853">
        <ele>49.200000762939</ele>
        <time>2014-09-03T11:04:32.000Z</time>
      </trkpt>
      <trkpt lat="43.65252" lon="7.08533">
        <ele>49.200000762939</ele>
        <time>2014-09-03T11:04:33.000Z</time>
      </trkpt>
      <trkpt lat="43.65267" lon="7.08551">
        <ele>48.799999237061</ele>
        <time>2014-09-03T11:04:40.000Z</time>
      </trkpt>
      <trkpt lat="43.65283" lon="7.08568">
        <ele>48.400001525879</ele>
        <time>2014-09-03T11:04:47.000Z</time>
      </trkpt>
      <trkpt lat="43.653" lon="7.08584">
        <ele>47.599998474121</ele>
        <time>2014-09-03T11:04:53.000Z</time>
      </trkpt>
      <trkpt lat="43.65317" lon="7.08598">
        <ele>46</ele>
        <time>2014-09-03T11:04:58.000Z</time>
      </trkpt>
      <trkpt lat="43.65335" lon="7.08613">
        <ele>44.400001525879</ele>
        <time>2014-09-03T11:05:03.000Z</time>
      </trkpt>
      <trkpt lat="43.65351" lon="7.0863">
        <ele>43</ele>
        <time>2014-09-03T11:05:08.000Z</time>
      </trkpt>
      <trkpt lat="43.65368" lon="7.08645">
        <ele>42.400001525879</ele>
        <time>2014-09-03T11:05:13.000Z</time>
      </trkpt>
      <trkpt lat="43.65372" lon="7.08648">
        <ele>42.200000762939</ele>
        <time>2014-09-03T11:05:14.000Z</time>
      </trkpt>
      <trkpt lat="43.65387" lon="7.08672">
        <ele>41.400001525879</ele>
        <time>2014-09-03T11:05:19.000Z</time>
      </trkpt>
      <trkpt lat="43.65387" lon="7.08698">
        <ele>41</ele>
        <time>2014-09-03T11:05:22.000Z</time>
      </trkpt>
      <trkpt lat="43.65384" lon="7.08711">
        <ele>40.400001525879</ele>
        <time>2014-09-03T11:05:24.000Z</time>
      </trkpt>
      <trkpt lat="43.65373" lon="7.08742">
        <ele>39.400001525879</ele>
        <time>2014-09-03T11:05:29.000Z</time>
      </trkpt>
      <trkpt lat="43.65364" lon="7.08764">
        <ele>39</ele>
        <time>2014-09-03T11:05:33.000Z</time>
      </trkpt>
      <trkpt lat="43.6536" lon="7.08774">
        <ele>39</ele>
        <time>2014-09-03T11:05:35.000Z</time>
      </trkpt>
      <trkpt lat="43.65345" lon="7.08783">
        <ele>39.599998474121</ele>
        <time>2014-09-03T11:05:40.000Z</time>
      </trkpt>
      <trkpt lat="43.65343" lon="7.08781">
        <ele>39.799999237061</ele>
        <time>2014-09-03T11:05:41.000Z</time>
      </trkpt>
      <trkpt lat="43.65329" lon="7.0877">
        <ele>41</ele>
        <time>2014-09-03T11:05:47.000Z</time>
      </trkpt>
      <trkpt lat="43.65311" lon="7.08759">
        <ele>42.599998474121</ele>
        <time>2014-09-03T11:05:54.000Z</time>
      </trkpt>
      <trkpt lat="43.65295" lon="7.08747">
        <ele>44</ele>
        <time>2014-09-03T11:06:00.000Z</time>
      </trkpt>
      <trkpt lat="43.65279" lon="7.0873">
        <ele>46.400001525879</ele>
        <time>2014-09-03T11:06:06.000Z</time>
      </trkpt>
      <trkpt lat="43.65268" lon="7.08721">
        <ele>48</ele>
        <time>2014-09-03T11:06:10.000Z</time>
      </trkpt>
      <trkpt lat="43.65256" lon="7.0873">
        <ele>49</ele>
        <time>2014-09-03T11:06:16.000Z</time>
      </trkpt>
      <trkpt lat="43.65245" lon="7.08746">
        <ele>48.599998474121</ele>
        <time>2014-09-03T11:06:22.000Z</time>
      </trkpt>
      <trkpt lat="43.65235" lon="7.08749">
        <ele>49.400001525879</ele>
        <time>2014-09-03T11:06:26.000Z</time>
      </trkpt>
      <trkpt lat="43.65224" lon="7.0874">
        <ele>51.200000762939</ele>
        <time>2014-09-03T11:06:31.000Z</time>
      </trkpt>
      <trkpt lat="43.65208" lon="7.08731">
        <ele>54.200000762939</ele>
        <time>2014-09-03T11:06:38.000Z</time>
      </trkpt>
      <trkpt lat="43.6519" lon="7.08721">
        <ele>57.400001525879</ele>
        <time>2014-09-03T11:06:46.000Z</time>
      </trkpt>
      <trkpt lat="43.65172" lon="7.08711">
        <ele>61.200000762939</ele>
        <time>2014-09-03T11:06:55.000Z</time>
      </trkpt>
      <trkpt lat="43.65156" lon="7.0871">
        <ele>63.400001525879</ele>
        <time>2014-09-03T11:07:02.000Z</time>
      </trkpt>
      <trkpt lat="43.65139" lon="7.08714">
        <ele>66.199996948242</ele>
        <time>2014-09-03T11:07:10.000Z</time>
      </trkpt>
      <trkpt lat="43.65123" lon="7.0872">
        <ele>68.599998474121</ele>
        <time>2014-09-03T11:07:18.000Z</time>
      </trkpt>
      <trkpt lat="43.65113" lon="7.08729">
        <ele>70</ele>
        <time>2014-09-03T11:07:25.000Z</time>
      </trkpt>
      <trkpt lat="43.65107" lon="7.08742">
        <ele>70.199996948242</ele>
        <time>2014-09-03T11:07:31.000Z</time>
      </trkpt>
      <trkpt lat="43.65101" lon="7.08757">
        <ele>71.400001525879</ele>
        <time>2014-09-03T11:07:37.000Z</time>
      </trkpt>
      <trkpt lat="43.65094" lon="7.08771">
        <ele>73.400001525879</ele>
        <time>2014-09-03T11:07:44.000Z</time>
      </trkpt>
      <trkpt lat="43.65086" lon="7.08788">
        <ele>75.800003051758</ele>
        <time>2014-09-03T11:07:51.000Z</time>
      </trkpt>
      <trkpt lat="43.65082" lon="7.08796">
        <ele>76.800003051758</ele>
        <time>2014-09-03T11:07:54.000Z</time>
      </trkpt>
      <trkpt lat="43.65074" lon="7.08796">
        <ele>78.800003051758</ele>
        <time>2014-09-03T11:07:59.000Z</time>
      </trkpt>
      <trkpt lat="43.65073" lon="7.08794">
        <ele>79</ele>
        <time>2014-09-03T11:08:00.000Z</time>
      </trkpt>
      <trkpt lat="43.65071" lon="7.08789">
        <ele>79.400001525879</ele>
        <time>2014-09-03T11:08:03.000Z</time>
      </trkpt>
      <trkpt lat="43.65071" lon="7.08782">
        <ele>79.400001525879</ele>
        <time>2014-09-03T11:08:08.000Z</time>
      </trkpt>
      <trkpt lat="43.65066" lon="7.0877">
        <ele>80.599998474121</ele>
        <time>2014-09-03T11:08:16.000Z</time>
      </trkpt>
      <trkpt lat="43.6506" lon="7.08754">
        <ele>81.800003051758</ele>
        <time>2014-09-03T11:08:25.000Z</time>
      </trkpt>
      <trkpt lat="43.65058" lon="7.08738">
        <ele>82.199996948242</ele>
        <time>2014-09-03T11:08:34.000Z</time>
      </trkpt>
      <trkpt lat="43.65058" lon="7.08723">
        <ele>82</ele>
        <time>2014-09-03T11:08:41.000Z</time>
      </trkpt>
      <trkpt lat="43.6506" lon="7.08708">
        <ele>81.199996948242</ele>
        <time>2014-09-03T11:08:48.000Z</time>
      </trkpt>
      <trkpt lat="43.65061" lon="7.08706">
        <ele>81</ele>
        <time>2014-09-03T11:08:49.000Z</time>
      </trkpt>
      <trkpt lat="43.65065" lon="7.08683">
        <ele>81.599998474121</ele>
        <time>2014-09-03T11:08:58.000Z</time>
      </trkpt>
      <trkpt lat="43.65061" lon="7.08665">
        <ele>83.599998474121</ele>
        <time>2014-09-03T11:09:06.000Z</time>
      </trkpt>
      <trkpt lat="43.65056" lon="7.08649">
        <ele>84.199996948242</ele>
        <time>2014-09-03T11:09:13.000Z</time>
      </trkpt>
      <trkpt lat="43.65051" lon="7.08631">
        <ele>84.400001525879</ele>
        <time>2014-09-03T11:09:21.000Z</time>
      </trkpt>
      <trkpt lat="43.65043" lon="7.0862">
        <ele>85</ele>
        <time>2014-09-03T11:09:28.000Z</time>
      </trkpt>
      <trkpt lat="43.65042" lon="7.0862">
        <ele>85.199996948242</ele>
        <time>2014-09-03T11:09:29.000Z</time>
      </trkpt>
      <trkpt lat="43.65038" lon="7.08622">
        <ele>86.199996948242</ele>
        <time>2014-09-03T11:09:34.000Z</time>
      </trkpt>
      <trkpt lat="43.65037" lon="7.08623">
        <ele>86.400001525879</ele>
        <time>2014-09-03T11:09:35.000Z</time>
      </trkpt>
      <trkpt lat="43.65028" lon="7.08628">
        <ele>88</ele>
        <time>2014-09-03T11:09:41.000Z</time>
      </trkpt>
      <trkpt lat="43.65019" lon="7.08638">
        <ele>90</ele>
        <time>2014-09-03T11:09:48.000Z</time>
      </trkpt>
      <trkpt lat="43.6501" lon="7.08646">
        <ele>92</ele>
        <time>2014-09-03T11:09:54.000Z</time>
      </trkpt>
      <trkpt lat="43.65" lon="7.08662">
        <ele>95</ele>
        <time>2014-09-03T11:10:03.000Z</time>
      </trkpt>
      <trkpt lat="43.64994" lon="7.08672">
        <ele>96.400001525879</ele>
        <time>2014-09-03T11:10:09.000Z</time>
      </trkpt>
      <trkpt lat="43.6499" lon="7.08681">
        <ele>97.199996948242</ele>
        <time>2014-09-03T11:10:13.000Z</time>
      </trkpt>
      <trkpt lat="43.64987" lon="7.08693">
        <ele>98</ele>
        <time>2014-09-03T11:10:20.000Z</time>
      </trkpt>
      <trkpt lat="43.64985" lon="7.08706">
        <ele>98.599998474121</ele>
        <time>2014-09-03T11:10:26.000Z</time>
      </trkpt>
      <trkpt lat="43.64982" lon="7.08716">
        <ele>99.400001525879</ele>
        <time>2014-09-03T11:10:31.000Z</time>
      </trkpt>
      <trkpt lat="43.64979" lon="7.08728">
        <ele>100.59999847412</ele>
        <time>2014-09-03T11:10:37.000Z</time>
      </trkpt>
      <trkpt lat="43.64975" lon="7.08738">
        <ele>101.80000305176</ele>
        <time>2014-09-03T11:10:42.000Z</time>
      </trkpt>
      <trkpt lat="43.6497" lon="7.08748">
        <ele>103.19999694824</ele>
        <time>2014-09-03T11:10:47.000Z</time>
      </trkpt>
      <trkpt lat="43.64964" lon="7.08764">
        <ele>104.40000152588</ele>
        <time>2014-09-03T11:10:54.000Z</time>
      </trkpt>
      <trkpt lat="43.64957" lon="7.08778">
        <ele>105.80000305176</ele>
        <time>2014-09-03T11:11:03.000Z</time>
      </trkpt>
      <trkpt lat="43.64953" lon="7.0879">
        <ele>107</ele>
        <time>2014-09-03T11:11:10.000Z</time>
      </trkpt>
      <trkpt lat="43.64947" lon="7.08808">
        <ele>108.40000152588</ele>
        <time>2014-09-03T11:11:17.000Z</time>
      </trkpt>
      <trkpt lat="43.64943" lon="7.08818">
        <ele>109.19999694824</ele>
        <time>2014-09-03T11:11:22.000Z</time>
      </trkpt>
      <trkpt lat="43.64937" lon="7.08825">
        <ele>110.80000305176</ele>
        <time>2014-09-03T11:11:26.000Z</time>
      </trkpt>
      <trkpt lat="43.64928" lon="7.08829">
        <ele>113</ele>
        <time>2014-09-03T11:11:31.000Z</time>
      </trkpt>
      <trkpt lat="43.64917" lon="7.0883">
        <ele>115.19999694824</ele>
        <time>2014-09-03T11:11:37.000Z</time>
      </trkpt>
      <trkpt lat="43.64908" lon="7.08822">
        <ele>117.19999694824</ele>
        <time>2014-09-03T11:11:44.000Z</time>
      </trkpt>
      <trkpt lat="43.64905" lon="7.08811">
        <ele>118.19999694824</ele>
        <time>2014-09-03T11:11:50.000Z</time>
      </trkpt>
      <trkpt lat="43.64898" lon="7.08796">
        <ele>120.19999694824</ele>
        <time>2014-09-03T11:11:58.000Z</time>
      </trkpt>
      <trkpt lat="43.64889" lon="7.08782">
        <ele>122.59999847412</ele>
        <time>2014-09-03T11:12:06.000Z</time>
      </trkpt>
      <trkpt lat="43.64882" lon="7.0877">
        <ele>124.59999847412</ele>
        <time>2014-09-03T11:12:13.000Z</time>
      </trkpt>
      <trkpt lat="43.64879" lon="7.08765">
        <ele>125.40000152588</ele>
        <time>2014-09-03T11:12:16.000Z</time>
      </trkpt>
      <trkpt lat="43.64872" lon="7.08751">
        <ele>127</ele>
        <time>2014-09-03T11:12:24.000Z</time>
      </trkpt>
      <trkpt lat="43.64865" lon="7.08738">
        <ele>128.80000305176</ele>
        <time>2014-09-03T11:12:31.000Z</time>
      </trkpt>
      <trkpt lat="43.64854" lon="7.08718">
        <ele>130.39999389648</ele>
        <time>2014-09-03T11:12:40.000Z</time>
      </trkpt>
      <trkpt lat="43.64842" lon="7.08702">
        <ele>133</ele>
        <time>2014-09-03T11:12:49.000Z</time>
      </trkpt>
      <trkpt lat="43.64834" lon="7.08693">
        <ele>135.19999694824</ele>
        <time>2014-09-03T11:12:55.000Z</time>
      </trkpt>
      <trkpt lat="43.64823" lon="7.08682">
        <ele>137.80000305176</ele>
        <time>2014-09-03T11:13:02.000Z</time>
      </trkpt>
      <trkpt lat="43.64816" lon="7.08668">
        <ele>139.39999389648</ele>
        <time>2014-09-03T11:13:09.000Z</time>
      </trkpt>
      <trkpt lat="43.64809" lon="7.08648">
        <ele>141.39999389648</ele>
        <time>2014-09-03T11:13:16.000Z</time>
      </trkpt>
      <trkpt lat="43.64803" lon="7.08623">
        <ele>143.80000305176</ele>
        <time>2014-09-03T11:13:23.000Z</time>
      </trkpt>
      <trkpt lat="43.64797" lon="7.08598">
        <ele>145.60000610352</ele>
        <time>2014-09-03T11:13:31.000Z</time>
      </trkpt>
      <trkpt lat="43.64791" lon="7.08575">
        <ele>146.39999389648</ele>
        <time>2014-09-03T11:13:39.000Z</time>
      </trkpt>
      <trkpt lat="43.64782" lon="7.08554">
        <ele>146.60000610352</ele>
        <time>2014-09-03T11:13:47.000Z</time>
      </trkpt>
      <trkpt lat="43.64773" lon="7.08538">
        <ele>147.60000610352</ele>
        <time>2014-09-03T11:13:54.000Z</time>
      </trkpt>
      <trkpt lat="43.64764" lon="7.08527">
        <ele>149.19999694824</ele>
        <time>2014-09-03T11:14:00.000Z</time>
      </trkpt>
      <trkpt lat="43.64757" lon="7.08519">
        <ele>150</ele>
        <time>2014-09-03T11:14:05.000Z</time>
      </trkpt>
      <trkpt lat="43.64759" lon="7.08521">
        <ele>149.60000610352</ele>
        <time>2014-09-03T11:14:10.000Z</time>
      </trkpt>
      <trkpt lat="43.64762" lon="7.08524">
        <ele>149.19999694824</ele>
        <time>2014-09-03T11:14:13.000Z</time>
      </trkpt>
      <trkpt lat="43.64761" lon="7.08524">
        <ele>149.39999389648</ele>
        <time>2014-09-03T11:14:19.000Z</time>
      </trkpt>
      <trkpt lat="43.64763" lon="7.08502">
        <ele>145.39999389648</ele>
        <time>2014-09-03T11:16:14.000Z</time>
      </trkpt>
      <trkpt lat="43.64764" lon="7.08499">
        <ele>144.60000610352</ele>
        <time>2014-09-03T11:16:15.000Z</time>
      </trkpt>
      <trkpt lat="43.64756" lon="7.08489">
        <ele>145.39999389648</ele>
        <time>2014-09-03T11:16:19.000Z</time>
      </trkpt>
      <trkpt lat="43.64752" lon="7.08484">
        <ele>145.80000305176</ele>
        <time>2014-09-03T11:16:21.000Z</time>
      </trkpt>
      <trkpt lat="43.64747" lon="7.0847">
        <ele>144.19999694824</ele>
        <time>2014-09-03T11:16:24.000Z</time>
      </trkpt>
      <trkpt lat="43.64759" lon="7.08457">
        <ele>139.19999694824</ele>
        <time>2014-09-03T11:16:28.000Z</time>
      </trkpt>
      <trkpt lat="43.64763" lon="7.08455">
        <ele>137.80000305176</ele>
        <time>2014-09-03T11:16:29.000Z</time>
      </trkpt>
      <trkpt lat="43.64772" lon="7.08446">
        <ele>133.60000610352</ele>
        <time>2014-09-03T11:16:32.000Z</time>
      </trkpt>
      <trkpt lat="43.64783" lon="7.08439">
        <ele>129</ele>
        <time>2014-09-03T11:16:35.000Z</time>
      </trkpt>
      <trkpt lat="43.6479" lon="7.08435">
        <ele>126.40000152588</ele>
        <time>2014-09-03T11:16:37.000Z</time>
      </trkpt>
      <trkpt lat="43.648" lon="7.08433">
        <ele>122.80000305176</ele>
        <time>2014-09-03T11:16:40.000Z</time>
      </trkpt>
      <trkpt lat="43.64807" lon="7.08414">
        <ele>118.59999847412</ele>
        <time>2014-09-03T11:16:45.000Z</time>
      </trkpt>
      <trkpt lat="43.64814" lon="7.08395">
        <ele>113.80000305176</ele>
        <time>2014-09-03T11:16:49.000Z</time>
      </trkpt>
      <trkpt lat="43.64821" lon="7.08381">
        <ele>109.59999847412</ele>
        <time>2014-09-03T11:16:53.000Z</time>
      </trkpt>
      <trkpt lat="43.64828" lon="7.08368">
        <ele>107.19999694824</ele>
        <time>2014-09-03T11:16:56.000Z</time>
      </trkpt>
      <trkpt lat="43.6484" lon="7.08361">
        <ele>104.40000152588</ele>
        <time>2014-09-03T11:17:04.000Z</time>
      </trkpt>
      <trkpt lat="43.64841" lon="7.08362">
        <ele>104.40000152588</ele>
        <time>2014-09-03T11:17:05.000Z</time>
      </trkpt>
      <trkpt lat="43.64844" lon="7.08365">
        <ele>104</ele>
        <time>2014-09-03T11:17:07.000Z</time>
      </trkpt>
      <trkpt lat="43.64851" lon="7.08361">
        <ele>102.19999694824</ele>
        <time>2014-09-03T11:17:10.000Z</time>
      </trkpt>
      <trkpt lat="43.64862" lon="7.08351">
        <ele>99.599998474121</ele>
        <time>2014-09-03T11:17:14.000Z</time>
      </trkpt>
      <trkpt lat="43.64865" lon="7.08347">
        <ele>98.800003051758</ele>
        <time>2014-09-03T11:17:16.000Z</time>
      </trkpt>
      <trkpt lat="43.6487" lon="7.08341">
        <ele>97.599998474121</ele>
        <time>2014-09-03T11:17:18.000Z</time>
      </trkpt>
      <trkpt lat="43.64874" lon="7.0833">
        <ele>96.199996948242</ele>
        <time>2014-09-03T11:17:21.000Z</time>
      </trkpt>
      <trkpt lat="43.64881" lon="7.08328">
        <ele>94.599998474121</ele>
        <time>2014-09-03T11:17:24.000Z</time>
      </trkpt>
      <trkpt lat="43.64885" lon="7.08326">
        <ele>93.800003051758</ele>
        <time>2014-09-03T11:17:28.000Z</time>
      </trkpt>
      <trkpt lat="43.64897" lon="7.08319">
        <ele>90.599998474121</ele>
        <time>2014-09-03T11:17:32.000Z</time>
      </trkpt>
      <trkpt lat="43.64912" lon="7.08317">
        <ele>87.400001525879</ele>
        <time>2014-09-03T11:17:36.000Z</time>
      </trkpt>
      <trkpt lat="43.64918" lon="7.08301">
        <ele>84.400001525879</ele>
        <time>2014-09-03T11:17:39.000Z</time>
      </trkpt>
      <trkpt lat="43.6493" lon="7.08292">
        <ele>81.199996948242</ele>
        <time>2014-09-03T11:17:42.000Z</time>
      </trkpt>
      <trkpt lat="43.64934" lon="7.08291">
        <ele>80.599998474121</ele>
        <time>2014-09-03T11:17:43.000Z</time>
      </trkpt>
      <trkpt lat="43.64936" lon="7.0829">
        <ele>80</ele>
        <time>2014-09-03T11:17:44.000Z</time>
      </trkpt>
      <trkpt lat="43.64946" lon="7.08287">
        <ele>77.199996948242</ele>
        <time>2014-09-03T11:17:48.000Z</time>
      </trkpt>
      <trkpt lat="43.64955" lon="7.08291">
        <ele>75.599998474121</ele>
        <time>2014-09-03T11:17:52.000Z</time>
      </trkpt>
      <trkpt lat="43.64963" lon="7.08298">
        <ele>74.400001525879</ele>
        <time>2014-09-03T11:17:56.000Z</time>
      </trkpt>
      <trkpt lat="43.64966" lon="7.08298">
        <ele>73.800003051758</ele>
        <time>2014-09-03T11:17:57.000Z</time>
      </trkpt>
      <trkpt lat="43.6498" lon="7.08296">
        <ele>70.199996948242</ele>
        <time>2014-09-03T11:18:02.000Z</time>
      </trkpt>
      <trkpt lat="43.64991" lon="7.08302">
        <ele>68.199996948242</ele>
        <time>2014-09-03T11:18:06.000Z</time>
      </trkpt>
      <trkpt lat="43.64998" lon="7.08305">
        <ele>66.800003051758</ele>
        <time>2014-09-03T11:18:08.000Z</time>
      </trkpt>
      <trkpt lat="43.65014" lon="7.08302">
        <ele>62.799999237061</ele>
        <time>2014-09-03T11:18:13.000Z</time>
      </trkpt>
      <trkpt lat="43.65029" lon="7.08312">
        <ele>60.799999237061</ele>
        <time>2014-09-03T11:18:17.000Z</time>
      </trkpt>
      <trkpt lat="43.65038" lon="7.08324">
        <ele>60.200000762939</ele>
        <time>2014-09-03T11:18:20.000Z</time>
      </trkpt>
      <trkpt lat="43.65046" lon="7.08331">
        <ele>59.200000762939</ele>
        <time>2014-09-03T11:18:24.000Z</time>
      </trkpt>
      <trkpt lat="43.65047" lon="7.08333">
        <ele>59.200000762939</ele>
        <time>2014-09-03T11:18:25.000Z</time>
      </trkpt>
      <trkpt lat="43.65055" lon="7.08343">
        <ele>58.599998474121</ele>
        <time>2014-09-03T11:18:30.000Z</time>
      </trkpt>
      <trkpt lat="43.65058" lon="7.08342">
        <ele>58</ele>
        <time>2014-09-03T11:18:31.000Z</time>
      </trkpt>
      <trkpt lat="43.65061" lon="7.08341">
        <ele>57.400001525879</ele>
        <time>2014-09-03T11:18:34.000Z</time>
      </trkpt>
      <trkpt lat="43.65062" lon="7.08341">
        <ele>57.200000762939</ele>
        <time>2014-09-03T11:18:35.000Z</time>
      </trkpt>
      <trkpt lat="43.65072" lon="7.08338">
        <ele>55</ele>
        <time>2014-09-03T11:18:39.000Z</time>
      </trkpt>
      <trkpt lat="43.65073" lon="7.08339">
        <ele>54.799999237061</ele>
        <time>2014-09-03T11:18:40.000Z</time>
      </trkpt>
      <trkpt lat="43.65073" lon="7.08346">
        <ele>55.599998474121</ele>
        <time>2014-09-03T11:18:57.000Z</time>
      </trkpt>
      <trkpt lat="43.65075" lon="7.08348">
        <ele>55.400001525879</ele>
        <time>2014-09-03T11:19:05.000Z</time>
      </trkpt>
      <trkpt lat="43.65084" lon="7.08354">
        <ele>54.200000762939</ele>
        <time>2014-09-03T11:19:28.000Z</time>
      </trkpt>
      <trkpt lat="43.65085" lon="7.08356">
        <ele>54.200000762939</ele>
        <time>2014-09-03T11:19:33.000Z</time>
      </trkpt>
      <trkpt lat="43.65084" lon="7.0836">
        <ele>54.799999237061</ele>
        <time>2014-09-03T11:19:41.000Z</time>
      </trkpt>
      <trkpt lat="43.65089" lon="7.08365">
        <ele>54.200000762939</ele>
        <time>2014-09-03T11:19:47.000Z</time>
      </trkpt>
      <trkpt lat="43.65098" lon="7.08374">
        <ele>53.400001525879</ele>
        <time>2014-09-03T11:19:52.000Z</time>
      </trkpt>
      <trkpt lat="43.65111" lon="7.08389">
        <ele>53.200000762939</ele>
        <time>2014-09-03T11:19:58.000Z</time>
      </trkpt>
      <trkpt lat="43.65128" lon="7.08408">
        <ele>53.400001525879</ele>
        <time>2014-09-03T11:20:05.000Z</time>
      </trkpt>
      <trkpt lat="43.65143" lon="7.08421">
        <ele>53.200000762939</ele>
        <time>2014-09-03T11:20:10.000Z</time>
      </trkpt>
      <trkpt lat="43.65159" lon="7.08436">
        <ele>53.200000762939</ele>
        <time>2014-09-03T11:20:15.000Z</time>
      </trkpt>
      <trkpt lat="43.65177" lon="7.08452">
        <ele>53</ele>
        <time>2014-09-03T11:20:20.000Z</time>
      </trkpt>
      <trkpt lat="43.65195" lon="7.0847">
        <ele>52.200000762939</ele>
        <time>2014-09-03T11:20:25.000Z</time>
      </trkpt>
      <trkpt lat="43.65213" lon="7.08486">
        <ele>50.799999237061</ele>
        <time>2014-09-03T11:20:30.000Z</time>
      </trkpt>
      <trkpt lat="43.65227" lon="7.08502">
        <ele>50</ele>
        <time>2014-09-03T11:20:34.000Z</time>
      </trkpt>
      <trkpt lat="43.65237" lon="7.08513">
        <ele>49.599998474121</ele>
        <time>2014-09-03T11:20:37.000Z</time>
      </trkpt>
      <trkpt lat="43.65251" lon="7.08531">
        <ele>49.200000762939</ele>
        <time>2014-09-03T11:20:41.000Z</time>
      </trkpt>
      <trkpt lat="43.6526" lon="7.08543">
        <ele>48.799999237061</ele>
        <time>2014-09-03T11:20:44.000Z</time>
      </trkpt>
      <trkpt lat="43.65278" lon="7.08561">
        <ele>48.200000762939</ele>
        <time>2014-09-03T11:20:50.000Z</time>
      </trkpt>
      <trkpt lat="43.65293" lon="7.08576">
        <ele>48</ele>
        <time>2014-09-03T11:20:55.000Z</time>
      </trkpt>
      <trkpt lat="43.65309" lon="7.0859">
        <ele>46.799999237061</ele>
        <time>2014-09-03T11:21:00.000Z</time>
      </trkpt>
      <trkpt lat="43.65326" lon="7.08606">
        <ele>45.200000762939</ele>
        <time>2014-09-03T11:21:05.000Z</time>
      </trkpt>
      <trkpt lat="43.65342" lon="7.0862">
        <ele>43.799999237061</ele>
        <time>2014-09-03T11:21:10.000Z</time>
      </trkpt>
      <trkpt lat="43.65357" lon="7.08635">
        <ele>42.799999237061</ele>
        <time>2014-09-03T11:21:15.000Z</time>
      </trkpt>
      <trkpt lat="43.65374" lon="7.0865">
        <ele>42</ele>
        <time>2014-09-03T11:21:20.000Z</time>
      </trkpt>
      <trkpt lat="43.65384" lon="7.0866">
        <ele>41.799999237061</ele>
        <time>2014-09-03T11:21:23.000Z</time>
      </trkpt>
      <trkpt lat="43.6539" lon="7.08691">
        <ele>41</ele>
        <time>2014-09-03T11:21:27.000Z</time>
      </trkpt>
      <trkpt lat="43.65387" lon="7.08706">
        <ele>40.599998474121</ele>
        <time>2014-09-03T11:21:29.000Z</time>
      </trkpt>
      <trkpt lat="43.65376" lon="7.08738">
        <ele>39.400001525879</ele>
        <time>2014-09-03T11:21:34.000Z</time>
      </trkpt>
      <trkpt lat="43.65367" lon="7.08761">
        <ele>39</ele>
        <time>2014-09-03T11:21:38.000Z</time>
      </trkpt>
      <trkpt lat="43.65358" lon="7.08783">
        <ele>38.799999237061</ele>
        <time>2014-09-03T11:21:42.000Z</time>
      </trkpt>
      <trkpt lat="43.65357" lon="7.08808">
        <ele>38.200000762939</ele>
        <time>2014-09-03T11:21:47.000Z</time>
      </trkpt>
      <trkpt lat="43.6536" lon="7.08819">
        <ele>37.799999237061</ele>
        <time>2014-09-03T11:21:49.000Z</time>
      </trkpt>
      <trkpt lat="43.65374" lon="7.08848">
        <ele>37.200000762939</ele>
        <time>2014-09-03T11:21:54.000Z</time>
      </trkpt>
      <trkpt lat="43.65376" lon="7.08854">
        <ele>37.400001525879</ele>
        <time>2014-09-03T11:21:55.000Z</time>
      </trkpt>
      <trkpt lat="43.65387" lon="7.08877">
        <ele>37.599998474121</ele>
        <time>2014-09-03T11:21:59.000Z</time>
      </trkpt>
      <trkpt lat="43.65398" lon="7.08902">
        <ele>37.799999237061</ele>
        <time>2014-09-03T11:22:03.000Z</time>
      </trkpt>
      <trkpt lat="43.65411" lon="7.08928">
        <ele>38</ele>
        <time>2014-09-03T11:22:07.000Z</time>
      </trkpt>
      <trkpt lat="43.65422" lon="7.08953">
        <ele>38.200000762939</ele>
        <time>2014-09-03T11:22:11.000Z</time>
      </trkpt>
      <trkpt lat="43.65435" lon="7.08978">
        <ele>38.400001525879</ele>
        <time>2014-09-03T11:22:15.000Z</time>
      </trkpt>
      <trkpt lat="43.65445" lon="7.08998">
        <ele>38.599998474121</ele>
        <time>2014-09-03T11:22:18.000Z</time>
      </trkpt>
      <trkpt lat="43.6546" lon="7.0903">
        <ele>38.599998474121</ele>
        <time>2014-09-03T11:22:23.000Z</time>
      </trkpt>
      <trkpt lat="43.65472" lon="7.09055">
        <ele>38.799999237061</ele>
        <time>2014-09-03T11:22:27.000Z</time>
      </trkpt>
      <trkpt lat="43.65484" lon="7.09081">
        <ele>39</ele>
        <time>2014-09-03T11:22:31.000Z</time>
      </trkpt>
      <trkpt lat="43.65497" lon="7.09105">
        <ele>38.799999237061</ele>
        <time>2014-09-03T11:22:35.000Z</time>
      </trkpt>
      <trkpt lat="43.655" lon="7.09111">
        <ele>38.799999237061</ele>
        <time>2014-09-03T11:22:36.000Z</time>
      </trkpt>
      <trkpt lat="43.65509" lon="7.09128">
        <ele>38.599998474121</ele>
        <time>2014-09-03T11:22:39.000Z</time>
      </trkpt>
      <trkpt lat="43.65515" lon="7.09141">
        <ele>38.599998474121</ele>
        <time>2014-09-03T11:22:41.000Z</time>
      </trkpt>
      <trkpt lat="43.65527" lon="7.09157">
        <ele>38.200000762939</ele>
        <time>2014-09-03T11:22:44.000Z</time>
      </trkpt>
      <trkpt lat="43.6554" lon="7.09182">
        <ele>37.599998474121</ele>
        <time>2014-09-03T11:22:48.000Z</time>
      </trkpt>
      <trkpt lat="43.65556" lon="7.09214">
        <ele>37.400001525879</ele>
        <time>2014-09-03T11:22:53.000Z</time>
      </trkpt>
      <trkpt lat="43.65559" lon="7.0922">
        <ele>37.400001525879</ele>
        <time>2014-09-03T11:22:54.000Z</time>
      </trkpt>
      <trkpt lat="43.6557" lon="7.09244">
        <ele>37.400001525879</ele>
        <time>2014-09-03T11:22:58.000Z</time>
      </trkpt>
      <trkpt lat="43.65576" lon="7.09256">
        <ele>37.200000762939</ele>
        <time>2014-09-03T11:22:59.000Z</time>
      </trkpt>
      <trkpt lat="43.65594" lon="7.09279">
        <ele>36.400001525879</ele>
        <time>2014-09-03T11:23:03.000Z</time>
      </trkpt>
      <trkpt lat="43.65602" lon="7.09289">
        <ele>35.799999237061</ele>
        <time>2014-09-03T11:23:05.000Z</time>
      </trkpt>
      <trkpt lat="43.65624" lon="7.09306">
        <ele>35</ele>
        <time>2014-09-03T11:23:09.000Z</time>
      </trkpt>
      <trkpt lat="43.6564" lon="7.09317">
        <ele>34.200000762939</ele>
        <time>2014-09-03T11:23:12.000Z</time>
      </trkpt>
      <trkpt lat="43.65659" lon="7.0933">
        <ele>33.400001525879</ele>
        <time>2014-09-03T11:23:15.000Z</time>
      </trkpt>
      <trkpt lat="43.65665" lon="7.09333">
        <ele>33</ele>
        <time>2014-09-03T11:23:16.000Z</time>
      </trkpt>
      <trkpt lat="43.65686" lon="7.09342">
        <ele>31.60000038147</ele>
        <time>2014-09-03T11:23:19.000Z</time>
      </trkpt>
      <trkpt lat="43.65692" lon="7.09347">
        <ele>31.39999961853</ele>
        <time>2014-09-03T11:23:20.000Z</time>
      </trkpt>
      <trkpt lat="43.65711" lon="7.09358">
        <ele>30.60000038147</ele>
        <time>2014-09-03T11:23:23.000Z</time>
      </trkpt>
      <trkpt lat="43.6573" lon="7.09367">
        <ele>30</ele>
        <time>2014-09-03T11:23:26.000Z</time>
      </trkpt>
      <trkpt lat="43.65737" lon="7.09369">
        <ele>29.799999237061</ele>
        <time>2014-09-03T11:23:27.000Z</time>
      </trkpt>
      <trkpt lat="43.65764" lon="7.09369">
        <ele>29.200000762939</ele>
        <time>2014-09-03T11:23:31.000Z</time>
      </trkpt>
      <trkpt lat="43.65771" lon="7.09366">
        <ele>29</ele>
        <time>2014-09-03T11:23:32.000Z</time>
      </trkpt>
      <trkpt lat="43.65789" lon="7.09358">
        <ele>28.799999237061</ele>
        <time>2014-09-03T11:23:35.000Z</time>
      </trkpt>
      <trkpt lat="43.65807" lon="7.09349">
        <ele>29.200000762939</ele>
        <time>2014-09-03T11:23:38.000Z</time>
      </trkpt>
      <trkpt lat="43.65818" lon="7.09342">
        <ele>30</ele>
        <time>2014-09-03T11:23:40.000Z</time>
      </trkpt>
      <trkpt lat="43.65836" lon="7.09319">
        <ele>31.60000038147</ele>
        <time>2014-09-03T11:23:44.000Z</time>
      </trkpt>
      <trkpt lat="43.6584" lon="7.09315">
        <ele>31.799999237061</ele>
        <time>2014-09-03T11:23:45.000Z</time>
      </trkpt>
      <trkpt lat="43.65849" lon="7.09309">
        <ele>32.599998474121</ele>
        <time>2014-09-03T11:23:47.000Z</time>
      </trkpt>
      <trkpt lat="43.65858" lon="7.09308">
        <ele>33.200000762939</ele>
        <time>2014-09-03T11:23:49.000Z</time>
      </trkpt>
      <trkpt lat="43.6587" lon="7.09318">
        <ele>33.400001525879</ele>
        <time>2014-09-03T11:23:53.000Z</time>
      </trkpt>
      <trkpt lat="43.65871" lon="7.09323">
        <ele>33.200000762939</ele>
        <time>2014-09-03T11:23:54.000Z</time>
      </trkpt>
      <trkpt lat="43.65875" lon="7.09341">
        <ele>32.400001525879</ele>
        <time>2014-09-03T11:23:57.000Z</time>
      </trkpt>
      <trkpt lat="43.6588" lon="7.09368">
        <ele>31.200000762939</ele>
        <time>2014-09-03T11:24:01.000Z</time>
      </trkpt>
      <trkpt lat="43.65884" lon="7.09382">
        <ele>30.799999237061</ele>
        <time>2014-09-03T11:24:03.000Z</time>
      </trkpt>
      <trkpt lat="43.65889" lon="7.09396">
        <ele>30.39999961853</ele>
        <time>2014-09-03T11:24:05.000Z</time>
      </trkpt>
      <trkpt lat="43.65894" lon="7.09408">
        <ele>30</ele>
        <time>2014-09-03T11:24:07.000Z</time>
      </trkpt>
      <trkpt lat="43.65902" lon="7.09435">
        <ele>29.200000762939</ele>
        <time>2014-09-03T11:24:11.000Z</time>
      </trkpt>
      <trkpt lat="43.6591" lon="7.09464">
        <ele>28.200000762939</ele>
        <time>2014-09-03T11:24:15.000Z</time>
      </trkpt>
      <trkpt lat="43.65914" lon="7.09479">
        <ele>27.799999237061</ele>
        <time>2014-09-03T11:24:17.000Z</time>
      </trkpt>
      <trkpt lat="43.65925" lon="7.09519">
        <ele>27.60000038147</ele>
        <time>2014-09-03T11:24:22.000Z</time>
      </trkpt>
      <trkpt lat="43.65931" lon="7.09543">
        <ele>27.39999961853</ele>
        <time>2014-09-03T11:24:25.000Z</time>
      </trkpt>
      <trkpt lat="43.65936" lon="7.09559">
        <ele>27.200000762939</ele>
        <time>2014-09-03T11:24:27.000Z</time>
      </trkpt>
      <trkpt lat="43.65943" lon="7.0959">
        <ele>28.200000762939</ele>
        <time>2014-09-03T11:24:31.000Z</time>
      </trkpt>
      <trkpt lat="43.65958" lon="7.09605">
        <ele>30</ele>
        <time>2014-09-03T11:24:35.000Z</time>
      </trkpt>
      <trkpt lat="43.65965" lon="7.09599">
        <ele>30.39999961853</ele>
        <time>2014-09-03T11:24:37.000Z</time>
      </trkpt>
      <trkpt lat="43.65971" lon="7.0959">
        <ele>31.200000762939</ele>
        <time>2014-09-03T11:24:39.000Z</time>
      </trkpt>
      <trkpt lat="43.65975" lon="7.09584">
        <ele>31.60000038147</ele>
        <time>2014-09-03T11:24:40.000Z</time>
      </trkpt>
      <trkpt lat="43.65996" lon="7.09566">
        <ele>34.400001525879</ele>
        <time>2014-09-03T11:24:44.000Z</time>
      </trkpt>
      <trkpt lat="43.66002" lon="7.09563">
        <ele>35</ele>
        <time>2014-09-03T11:24:45.000Z</time>
      </trkpt>
      <trkpt lat="43.6602" lon="7.09555">
        <ele>36.799999237061</ele>
        <time>2014-09-03T11:24:48.000Z</time>
      </trkpt>
      <trkpt lat="43.66041" lon="7.09545">
        <ele>38.400001525879</ele>
        <time>2014-09-03T11:24:52.000Z</time>
      </trkpt>
      <trkpt lat="43.66059" lon="7.09537">
        <ele>39.799999237061</ele>
        <time>2014-09-03T11:24:56.000Z</time>
      </trkpt>
      <trkpt lat="43.66063" lon="7.09537">
        <ele>40.200000762939</ele>
        <time>2014-09-03T11:24:57.000Z</time>
      </trkpt>
      <trkpt lat="43.66074" lon="7.09541">
        <ele>41.200000762939</ele>
        <time>2014-09-03T11:25:00.000Z</time>
      </trkpt>
      <trkpt lat="43.66083" lon="7.09548">
        <ele>42.200000762939</ele>
        <time>2014-09-03T11:25:02.000Z</time>
      </trkpt>
      <trkpt lat="43.66091" lon="7.09559">
        <ele>43</ele>
        <time>2014-09-03T11:25:05.000Z</time>
      </trkpt>
      <trkpt lat="43.66102" lon="7.09581">
        <ele>43.799999237061</ele>
        <time>2014-09-03T11:25:12.000Z</time>
      </trkpt>
      <trkpt lat="43.66113" lon="7.09581">
        <ele>43.799999237061</ele>
        <time>2014-09-03T11:25:16.000Z</time>
      </trkpt>
      <trkpt lat="43.66116" lon="7.0958">
        <ele>44</ele>
        <time>2014-09-03T11:25:17.000Z</time>
      </trkpt>
      <trkpt lat="43.66135" lon="7.0957">
        <ele>44.400001525879</ele>
        <time>2014-09-03T11:25:24.000Z</time>
      </trkpt>
      <trkpt lat="43.66145" lon="7.09563">
        <ele>44.599998474121</ele>
        <time>2014-09-03T11:25:28.000Z</time>
      </trkpt>
      <trkpt lat="43.66157" lon="7.09553">
        <ele>45</ele>
        <time>2014-09-03T11:25:33.000Z</time>
      </trkpt>
      <trkpt lat="43.66174" lon="7.09544">
        <ele>46.799999237061</ele>
        <time>2014-09-03T11:25:40.000Z</time>
      </trkpt>
      <trkpt lat="43.66176" lon="7.09542">
        <ele>47</ele>
        <time>2014-09-03T11:25:41.000Z</time>
      </trkpt>
    </trkseg>
  </trk>
</gpx>